Observation data for Bootleg on 11/17/2019      Previous  Date       Current Mesonet Observations  Soil Data  Daily Summary Page  Observations in Plain Language
KBO1 170600Z 02018KT 10/M03 A3005 RMK A01 T01031026  RH  040%=      5-min Rain = 0
KBO1 170601Z 02017KT 10/M03 A3005 RMK A01 T01031028  RH  040%=      5-min Rain = 0
KBO1 170602Z 02015KT 10/M03 A3005 RMK A01 T01031028  RH  040%=      5-min Rain = 0
KBO1 170603Z 02017KT 10/M03 A3005 RMK A01 T01031028  RH  040%=      5-min Rain = 0
KBO1 170604Z 02019KT 10/M03 A3005 RMK A01 T01031030  RH  039%=      5-min Rain = 0
KBO1 170605Z 02018KT 11/M03 A3005 RMK A01 T01051030  RH  039%=      5-min Rain = 0
KBO1 170606Z 02016G21KT 11/M03 A3005 RMK A01 T01051031  RH  038%=      5-min Rain = 0
KBO1 170607Z 02016KT 11/M03 A3005 RMK A01 T01051031  RH  038%=      5-min Rain = 0
KBO1 170608Z 01017G22KT 11/M03 A3005 RMK A01 T01051031  RH  038%=      5-min Rain = 0
KBO1 170609Z 02017KT 11/M03 A3005 RMK A01 T01051032  RH  038%=      5-min Rain = 0
KBO1 170610Z 02018G24KT 11/M03 A3005 RMK A01 T01051033  RH  038%=      5-min Rain = 0
KBO1 170611Z 02016KT 11/M03 A3005 RMK A01 T01051033  RH  038%=      5-min Rain = 0
KBO1 170612Z 02018KT 11/M03 A3005 RMK A01 T01051034  RH  038%=      5-min Rain = 0
KBO1 170613Z 02019G24KT 11/M03 A3005 RMK A01 T01051034  RH  037%=      5-min Rain = 0
KBO1 170614Z 02017G22KT 11/M04 A3005 RMK A01 T01061035  RH  037%=      5-min Rain = 0
KBO1 170615Z 02019KT 11/M04 A3005 RMK A01 T01061035  RH  037%=      5-min Rain = 0
KBO1 170616Z 02018KT 11/M04 A3005 RMK A01 T01071036  RH  037%=      5-min Rain = 0
KBO1 170617Z 02018KT 11/M04 A3005 RMK A01 T01071037  RH  036%=      5-min Rain = 0
KBO1 170618Z 02018KT 11/M04 A3005 RMK A01 T01071036  RH  036%=      5-min Rain = 0
KBO1 170619Z 02019KT 11/M04 A3005 RMK A01 T01061037  RH  036%=      5-min Rain = 0
KBO1 170620Z 02019KT 11/M04 A3005 RMK A01 T01071037  RH  036%=      5-min Rain = 0
KBO1 170621Z 02020KT 11/M04 A3005 RMK A01 T01071038  RH  036%=      5-min Rain = 0
KBO1 170622Z 02019G24KT 11/M04 A3005 RMK A01 T01071038  RH  036%=      5-min Rain = 0
KBO1 170623Z 02021KT 11/M04 A3005 RMK A01 T01081039  RH  035%=      5-min Rain = 0
KBO1 170624Z 02021G26KT 11/M04 A3006 RMK A01 T01091039  RH  035%=      5-min Rain = 0
KBO1 170625Z 02020KT 11/M04 A3006 RMK A01 T01101039  RH  035%=      5-min Rain = 0
KBO1 170626Z 02020KT 11/M04 A3006 RMK A01 T01101040  RH  035%=      5-min Rain = 0
KBO1 170627Z 02022G27KT 11/M04 A3006 RMK A01 T01101040  RH  035%=      5-min Rain = 0
KBO1 170628Z 02021KT 11/M04 A3006 RMK A01 T01101040  RH  035%=      5-min Rain = 0
KBO1 170629Z 02022G27KT 11/M04 A3006 RMK A01 T01101041  RH  034%=      5-min Rain = 0
KBO1 170630Z 02023KT 11/M04 A3006 RMK A01 T01111041  RH  034%=      5-min Rain = 0
KBO1 170631Z 02022KT 11/M04 A3006 RMK A01 T01111041  RH  034%=      5-min Rain = 0
KBO1 170632Z 02020G26KT 11/M04 A3006 RMK A01 T01101041  RH  034%=      5-min Rain = 0
KBO1 170633Z 02021KT 11/M04 A3006 RMK A01 T01101041  RH  035%=      5-min Rain = 0
KBO1 170634Z 02021KT 11/M04 A3006 RMK A01 T01081041  RH  035%=      5-min Rain = 0
KBO1 170635Z 02022G27KT 11/M04 A3006 RMK A01 T01081041  RH  035%=      5-min Rain = 0
KBO1 170636Z 02022G27KT 11/M04 A3006 RMK A01 T01081041  RH  035%=      5-min Rain = 0
KBO1 170637Z 02024KT 11/M04 A3006 RMK A01 T01081041  RH  035%=      5-min Rain = 0
KBO1 170638Z 02022G27KT 11/M04 A3006 RMK A01 T01081041  RH  035%=      5-min Rain = 0
KBO1 170639Z 02021KT 11/M04 A3006 RMK A01 T01081041  RH  035%=      5-min Rain = 0
KBO1 170640Z 02025KT 11/M04 A3007 RMK A01 T01071041  RH  035%=      5-min Rain = 0
KBO1 170641Z 02022KT 11/M04 A3007 RMK A01 T01071042  RH  035%=      5-min Rain = 0
KBO1 170642Z 02022KT 11/M04 A3007 RMK A01 T01061042  RH  035%=      5-min Rain = 0
KBO1 170643Z 02022G27KT 11/M04 A3007 RMK A01 T01061042  RH  035%=      5-min Rain = 0
KBO1 170644Z 02022KT 11/M04 A3007 RMK A01 T01061042  RH  035%=      5-min Rain = 0
KBO1 170645Z 02024KT 11/M04 A3007 RMK A01 T01051042  RH  035%=      5-min Rain = 0
KBO1 170646Z 02020KT 11/M04 A3007 RMK A01 T01061042  RH  035%=      5-min Rain = 0
KBO1 170647Z 02021G26KT 11/M04 A3007 RMK A01 T01051042  RH  035%=      5-min Rain = 0
KBO1 170648Z 02020KT 10/M04 A3007 RMK A01 T01041042  RH  035%=      5-min Rain = 0
KBO1 170649Z 02021KT 10/M04 A3008 RMK A01 T01041042  RH  036%=      5-min Rain = 0
KBO1 170650Z 02022KT 10/M04 A3008 RMK A01 T01041042  RH  036%=      5-min Rain = 0
KBO1 170651Z 02021KT 10/M04 A3008 RMK A01 T01041042  RH  036%=      5-min Rain = 0
KBO1 170652Z 02022KT 10/M04 A3008 RMK A01 T01041042  RH  036%=      5-min Rain = 0
KBO1 170653Z 02020G25KT 10/M04 A3008 RMK A01 T01031042  RH  036%=      5-min Rain = 0
KBO1 170654Z 01020G25KT 10/M04 A3008 RMK A01 T01031042  RH  036%=      5-min Rain = 0
KBO1 170655Z 02021KT 10/M04 A3008 RMK A01 T01021042  RH  036%=      5-min Rain = 0
KBO1 170656Z 02019KT 10/M04 A3008 RMK A01 T01021042  RH  036%=      5-min Rain = 0
KBO1 170657Z 02020G26KT 10/M04 A3008 RMK A01 T01021042  RH  036%=      5-min Rain = 0
KBO1 170658Z 02019G24KT 10/M04 A3008 RMK A01 T01011042  RH  036%=      5-min Rain = 0
KBO1 170659Z 02021G26KT 10/M04 A3008 RMK A01 T01011042  RH  036%=      5-min Rain = 0
KBO1 170700Z 02020G25KT 10/M04 A3009 RMK A01 T01021041  RH  036%=      5-min Rain = 0
KBO1 170701Z 02019G24KT 10/M04 A3008 RMK A01 T01011041  RH  036%=      5-min Rain = 0
KBO1 170702Z 02019G24KT 10/M04 A3008 RMK A01 T01021041  RH  036%=      5-min Rain = 0
KBO1 170703Z 02019KT 10/M04 A3009 RMK A01 T01011041  RH  037%=      5-min Rain = 0
KBO1 170704Z 02019KT 10/M04 A3008 RMK A01 T01001041  RH  037%=      5-min Rain = 0
KBO1 170705Z 02019KT 10/M04 A3009 RMK A01 T01001041  RH  037%=      5-min Rain = 0
KBO1 170706Z 02018KT 10/M04 A3009 RMK A01 T01001041  RH  037%=      5-min Rain = 0
KBO1 170707Z 02020KT 10/M04 A3009 RMK A01 T00991041  RH  037%=      5-min Rain = 0
KBO1 170708Z 02020KT 10/M04 A3009 RMK A01 T00991040  RH  037%=      5-min Rain = 0
KBO1 170709Z 02017G23KT 10/M04 A3009 RMK A01 T01001040  RH  037%=      5-min Rain = 0
KBO1 170710Z 02019G24KT 10/M04 A3009 RMK A01 T00991040  RH  037%=      5-min Rain = 0
KBO1 170711Z 02018KT 10/M04 A3009 RMK A01 T00991040  RH  037%=      5-min Rain = 0
KBO1 170712Z 02018KT 10/M04 A3009 RMK A01 T00981040  RH  038%=      5-min Rain = 0
KBO1 170713Z 02017KT 10/M04 A3009 RMK A01 T00981040  RH  038%=      5-min Rain = 0
KBO1 170714Z 02018KT 10/M04 A3009 RMK A01 T00971040  RH  038%=      5-min Rain = 0
KBO1 170715Z 02016KT 10/M04 A3009 RMK A01 T00961040  RH  038%=      5-min Rain = 0
KBO1 170716Z 02018G23KT 10/M04 A3009 RMK A01 T00961039  RH  038%=      5-min Rain = 0
KBO1 170717Z 02018KT 10/M04 A3009 RMK A01 T00971039  RH  038%=      5-min Rain = 0
KBO1 170718Z 02020KT 10/M04 A3009 RMK A01 T00971039  RH  038%=      5-min Rain = 0
KBO1 170719Z 02016KT 10/M04 A3009 RMK A01 T00981040  RH  038%=      5-min Rain = 0
KBO1 170720Z 02015KT 10/M04 A3009 RMK A01 T00971040  RH  038%=      5-min Rain = 0
KBO1 170721Z 02019KT 10/M04 A3009 RMK A01 T00961040  RH  038%=      5-min Rain = 0
KBO1 170722Z 02018KT 10/M04 A3009 RMK A01 T00951040  RH  038%=      5-min Rain = 0
KBO1 170723Z 02017KT 10/M04 A3009 RMK A01 T00961039  RH  038%=      5-min Rain = 0
KBO1 170724Z 02018KT 10/M04 A3009 RMK A01 T00961040  RH  038%=      5-min Rain = 0
KBO1 170725Z 02018KT 10/M04 A301 RMK A01 T00961039  RH  038%=      5-min Rain = 0
KBO1 170726Z 02020KT 10/M04 A3009 RMK A01 T00961040  RH  038%=      5-min Rain = 0
KBO1 170727Z 02017KT 10/M04 A3009 RMK A01 T00961040  RH  038%=      5-min Rain = 0
KBO1 170728Z 02017KT 10/M04 A3009 RMK A01 T00961040  RH  038%=      5-min Rain = 0
KBO1 170729Z 02016KT 10/M04 A3009 RMK A01 T00951040  RH  038%=      5-min Rain = 0
KBO1 170730Z 02017KT 10/M04 A3009 RMK A01 T00951040  RH  038%=      5-min Rain = 0
KBO1 170731Z 02018KT 10/M04 A3009 RMK A01 T00951040  RH  039%=      5-min Rain = 0
KBO1 170732Z 02019KT 09/M04 A301 RMK A01 T00941040  RH  039%=      5-min Rain = 0
KBO1 170733Z 02018KT 09/M04 A301 RMK A01 T00941040  RH  039%=      5-min Rain = 0
KBO1 170734Z 01017KT 09/M04 A301 RMK A01 T00941040  RH  039%=      5-min Rain = 0
KBO1 170735Z 01017KT 09/M04 A301 RMK A01 T00941040  RH  039%=      5-min Rain = 0
KBO1 170736Z 01018KT 09/M04 A3011 RMK A01 T00931040  RH  039%=      5-min Rain = 0
KBO1 170737Z 01017KT 09/M04 A3011 RMK A01 T00931040  RH  039%=      5-min Rain = 0
KBO1 170738Z 01016KT 09/M04 A3011 RMK A01 T00921040  RH  039%=      5-min Rain = 0
KBO1 170739Z 01018KT 09/M04 A3011 RMK A01 T00911040  RH  039%=      5-min Rain = 0
KBO1 170740Z 00019KT 09/M04 A3011 RMK A01 T00911039  RH  040%=      5-min Rain = 0
KBO1 170741Z 00020G25KT 09/M04 A3011 RMK A01 T00921038  RH  040%=      5-min Rain = 0
KBO1 170742Z 01018KT 09/M04 A3011 RMK A01 T00931037  RH  040%=      5-min Rain = 0
KBO1 170743Z 01021KT 09/M04 A3011 RMK A01 T00931037  RH  040%=      5-min Rain = 0
KBO1 170744Z 01020KT 09/M04 A3011 RMK A01 T00931037  RH  040%=      5-min Rain = 0
KBO1 170745Z 01019KT 09/M04 A3011 RMK A01 T00921036  RH  040%=      5-min Rain = 0
KBO1 170746Z 01019G26KT 09/M04 A3011 RMK A01 T00921036  RH  040%=      5-min Rain = 0
KBO1 170747Z 00019G25KT 09/M04 A3011 RMK A01 T00911036  RH  041%=      5-min Rain = 0
KBO1 170748Z 00018G24KT 09/M04 A3011 RMK A01 T00901036  RH  041%=      5-min Rain = 0
KBO1 170749Z 01020KT 09/M04 A3012 RMK A01 T00891036  RH  041%=      5-min Rain = 0
KBO1 170750Z 00018G23KT 09/M04 A3012 RMK A01 T00891035  RH  041%=      5-min Rain = 0
KBO1 170751Z 00019KT 09/M04 A3012 RMK A01 T00891035  RH  041%=      5-min Rain = 0
KBO1 170752Z 00018KT 09/M04 A3012 RMK A01 T00881035  RH  042%=      5-min Rain = 0
KBO1 170753Z 00016G21KT 09/M04 A3012 RMK A01 T00881035  RH  042%=      5-min Rain = 0
KBO1 170754Z 00017KT 09/M04 A3012 RMK A01 T00871035  RH  042%=      5-min Rain = 0
KBO1 170755Z 36018KT 09/M04 A3012 RMK A01 T00861036  RH  042%=      5-min Rain = 0
KBO1 170756Z 35017KT 09/M04 A3012 RMK A01 T00861035  RH  042%=      5-min Rain = 0
KBO1 170757Z 36018KT 09/M04 A3012 RMK A01 T00861035  RH  042%=      5-min Rain = 0
KBO1 170758Z 35016KT 09/M04 A3012 RMK A01 T00861035  RH  042%=      5-min Rain = 0
KBO1 170759Z 36016KT 09/M04 A3012 RMK A01 T00861035  RH  042%=      5-min Rain = 0
KBO1 170800Z 36014KT 08/M04 A3012 RMK A01 T00841035  RH  043%=      5-min Rain = 0
KBO1 170801Z 36014G19KT 08/M04 A3012 RMK A01 T00831035  RH  043%=      5-min Rain = 0
KBO1 170802Z 35016KT 08/M04 A3012 RMK A01 T00821035  RH  043%=      5-min Rain = 0
KBO1 170803Z 35017KT 08/M04 A3012 RMK A01 T00821035  RH  044%=      5-min Rain = 0
KBO1 170804Z 35015KT 08/M03 A3012 RMK A01 T00821034  RH  044%=      5-min Rain = 0
KBO1 170805Z 35014KT 08/M04 A3012 RMK A01 T00811035  RH  044%=      5-min Rain = 0
KBO1 170806Z 35017G24KT 08/M04 A3013 RMK A01 T00791035  RH  044%=      5-min Rain = 0
KBO1 170807Z 35021G26KT 08/M03 A3012 RMK A01 T00791034  RH  045%=      5-min Rain = 0
KBO1 170808Z 36021KT 08/M03 A3013 RMK A01 T00811032  RH  045%=      5-min Rain = 0
KBO1 170809Z 36018G24KT 08/M03 A3013 RMK A01 T00811032  RH  045%=      5-min Rain = 0
KBO1 170810Z 36021G26KT 08/M03 A3013 RMK A01 T00811031  RH  045%=      5-min Rain = 0
KBO1 170811Z 35021G27KT 08/M03 A3013 RMK A01 T00811031  RH  045%=      5-min Rain = 0
KBO1 170812Z 36018KT 08/M03 A3013 RMK A01 T00811031  RH  045%=      5-min Rain = 0
KBO1 170813Z 36021G27KT 08/M03 A3013 RMK A01 T00801031  RH  045%=      5-min Rain = 0
KBO1 170814Z 36021KT 08/M03 A3014 RMK A01 T00791031  RH  046%=      5-min Rain = 0
KBO1 170815Z 00022G27KT 08/M03 A3014 RMK A01 T00791030  RH  046%=      5-min Rain = 0
KBO1 170816Z 36024KT 08/M03 A3014 RMK A01 T00791030  RH  046%=      5-min Rain = 0
KBO1 170817Z 36021KT 08/M03 A3014 RMK A01 T00791030  RH  046%=      5-min Rain = 0
KBO1 170818Z 00020KT 08/M03 A3014 RMK A01 T00791030  RH  046%=      5-min Rain = 0
KBO1 170819Z 35021KT 08/M03 A3014 RMK A01 T00781030  RH  046%=      5-min Rain = 0
KBO1 170820Z 35020KT 08/M03 A3014 RMK A01 T00781031  RH  046%=      5-min Rain = 0
KBO1 170821Z 35018KT 08/M03 A3014 RMK A01 T00771031  RH  046%=      5-min Rain = 0
KBO1 170822Z 35019KT 08/M03 A3014 RMK A01 T00761031  RH  046%=      5-min Rain = 0
KBO1 170823Z 34020KT 08/M03 A3014 RMK A01 T00761031  RH  047%=      5-min Rain = 0
KBO1 170824Z 35025KT 08/M03 A3014 RMK A01 T00761030  RH  047%=      5-min Rain = 0
KBO1 170825Z 36025KT 08/M03 A3014 RMK A01 T00761029  RH  047%=      5-min Rain = 0
KBO1 170826Z 00024KT 08/M03 A3014 RMK A01 T00761028  RH  048%=      5-min Rain = 0
KBO1 170827Z 00021G26KT 08/M03 A3014 RMK A01 T00751029  RH  048%=      5-min Rain = 0
KBO1 170828Z 01018KT 07/M03 A3014 RMK A01 T00741029  RH  048%=      5-min Rain = 0
KBO1 170829Z 36020KT 07/M03 A3014 RMK A01 T00731029  RH  049%=      5-min Rain = 0
KBO1 170830Z 36020KT 07/M03 A3014 RMK A01 T00711028  RH  049%=      5-min Rain = 0
KBO1 170831Z 36021G27KT 07/M03 A3014 RMK A01 T00711027  RH  049%=      5-min Rain = 0
KBO1 170832Z 00020KT 07/M03 A3014 RMK A01 T00711027  RH  050%=      5-min Rain = 0
KBO1 170833Z 36022KT 07/M03 A3014 RMK A01 T00701027  RH  050%=      5-min Rain = 0
KBO1 170834Z 00020G25KT 07/M03 A3014 RMK A01 T00701026  RH  050%=      5-min Rain = 0
KBO1 170835Z 00017KT 07/M03 A3014 RMK A01 T00701026  RH  050%=      5-min Rain = 0
KBO1 170836Z 36017KT 07/M03 A3014 RMK A01 T00691026  RH  051%=      5-min Rain = 0
KBO1 170837Z 00019KT 07/M03 A3014 RMK A01 T00681027  RH  051%=      5-min Rain = 0
KBO1 170838Z 00019KT 07/M03 A3014 RMK A01 T00681026  RH  051%=      5-min Rain = 0
KBO1 170839Z 00016KT 07/M03 A3014 RMK A01 T00681026  RH  051%=      5-min Rain = 0
KBO1 170840Z 00018KT 07/M03 A3014 RMK A01 T00671026  RH  051%=      5-min Rain = 0
KBO1 170841Z 36019KT 07/M03 A3014 RMK A01 T00671026  RH  052%=      5-min Rain = 0
KBO1 170842Z 36017KT 07/M03 A3014 RMK A01 T00671025  RH  052%=      5-min Rain = 0
KBO1 170843Z 00017KT 07/M03 A3014 RMK A01 T00661025  RH  052%=      5-min Rain = 0
KBO1 170844Z 00016KT 07/M03 A3014 RMK A01 T00651026  RH  052%=      5-min Rain = 0
KBO1 170845Z 36018KT 06/M03 A3014 RMK A01 T00641026  RH  052%=      5-min Rain = 0
KBO1 170846Z 36017KT 06/M03 A3014 RMK A01 T00641026  RH  053%=      5-min Rain = 0
KBO1 170847Z 00017KT 06/M03 A3014 RMK A01 T00641025  RH  053%=      5-min Rain = 0
KBO1 170848Z 00017KT 06/M03 A3014 RMK A01 T00641025  RH  053%=      5-min Rain = 0
KBO1 170849Z 00016KT 06/M03 A3014 RMK A01 T00631026  RH  053%=      5-min Rain = 0
KBO1 170850Z 00017KT 06/M03 A3014 RMK A01 T00631025  RH  053%=      5-min Rain = 0
KBO1 170851Z 00017KT 06/M03 A3014 RMK A01 T00631025  RH  053%=      5-min Rain = 0
KBO1 170852Z 36015KT 06/M03 A3014 RMK A01 T00621025  RH  053%=      5-min Rain = 0
KBO1 170853Z 36014KT 06/M03 A3014 RMK A01 T00611026  RH  054%=      5-min Rain = 0
KBO1 170854Z 36016KT 06/M03 A3015 RMK A01 T00601026  RH  054%=      5-min Rain = 0
KBO1 170855Z 36015KT 06/M03 A3015 RMK A01 T00591025  RH  054%=      5-min Rain = 0
KBO1 170856Z 36015KT 06/M03 A3015 RMK A01 T00591025  RH  055%=      5-min Rain = 0
KBO1 170857Z 36013KT 06/M03 A3015 RMK A01 T00591025  RH  055%=      5-min Rain = 0
KBO1 170858Z 36015KT 06/M03 A3015 RMK A01 T00581025  RH  055%=      5-min Rain = 0
KBO1 170859Z 00015KT 06/M03 A3014 RMK A01 T00581025  RH  055%=      5-min Rain = 0
KBO1 170900Z 36016KT 06/M03 A3015 RMK A01 T00581025  RH  055%=      5-min Rain = 0
KBO1 170901Z 36014G19KT 06/M03 A3015 RMK A01 T00581025  RH  055%=      5-min Rain = 0
KBO1 170902Z 35014KT 06/M03 A3015 RMK A01 T00571026  RH  055%=      5-min Rain = 0
KBO1 170903Z 36015KT 06/M03 A3015 RMK A01 T00571025  RH  056%=      5-min Rain = 0
KBO1 170904Z 36014KT 06/M03 A3015 RMK A01 T00561025  RH  056%=      5-min Rain = 0
KBO1 170905Z 36014KT 06/M03 A3015 RMK A01 T00561025  RH  056%=      5-min Rain = 0
KBO1 170906Z 36014KT 06/M03 A3015 RMK A01 T00561025  RH  056%=      5-min Rain = 0
KBO1 170907Z 35013KT 06/M03 A3015 RMK A01 T00551025  RH  056%=      5-min Rain = 0
KBO1 170908Z 35014KT 06/M02 A3015 RMK A01 T00551024  RH  057%=      5-min Rain = 0
KBO1 170909Z 35014KT 06/M02 A3015 RMK A01 T00551024  RH  057%=      5-min Rain = 0
KBO1 170910Z 35014KT 06/M02 A3015 RMK A01 T00551024  RH  057%=      5-min Rain = 0
KBO1 170911Z 35014KT 05/M02 A3015 RMK A01 T00541024  RH  057%=      5-min Rain = 0
KBO1 170912Z 35015KT 05/M02 A3015 RMK A01 T00541024  RH  057%=      5-min Rain = 0
KBO1 170913Z 35015KT 05/M02 A3015 RMK A01 T00541024  RH  057%=      5-min Rain = 0
KBO1 170914Z 35014KT 06/M02 A3015 RMK A01 T00551024  RH  057%=      5-min Rain = 0
KBO1 170915Z 35014KT 06/M02 A3015 RMK A01 T00551023  RH  057%=      5-min Rain = 0
KBO1 170916Z 35015KT 06/M02 A3015 RMK A01 T00551023  RH  057%=      5-min Rain = 0
KBO1 170917Z 35014KT 05/M02 A3015 RMK A01 T00541023  RH  057%=      5-min Rain = 0
KBO1 170918Z 35014KT 05/M02 A3015 RMK A01 T00541023  RH  058%=      5-min Rain = 0
KBO1 170919Z 35016KT 05/M02 A3015 RMK A01 T00531023  RH  058%=      5-min Rain = 0
KBO1 170920Z 35015KT 05/M02 A3015 RMK A01 T00531023  RH  058%=      5-min Rain = 0
KBO1 170921Z 35017KT 05/M02 A3015 RMK A01 T00531022  RH  058%=      5-min Rain = 0
KBO1 170922Z 35017KT 05/M02 A3015 RMK A01 T00531022  RH  058%=      5-min Rain = 0
KBO1 170923Z 00016KT 05/M02 A3016 RMK A01 T00541022  RH  058%=      5-min Rain = 0
KBO1 170924Z 36016KT 05/M02 A3016 RMK A01 T00541021  RH  058%=      5-min Rain = 0
KBO1 170925Z 00015KT 05/M02 A3016 RMK A01 T00531021  RH  059%=      5-min Rain = 0
KBO1 170926Z 36014KT 05/M02 A3016 RMK A01 T00531021  RH  059%=      5-min Rain = 0
KBO1 170927Z 36016KT 05/M02 A3016 RMK A01 T00521021  RH  059%=      5-min Rain = 0
KBO1 170928Z 36015KT 05/M02 A3016 RMK A01 T00521020  RH  059%=      5-min Rain = 0
KBO1 170929Z 36016KT 05/M02 A3016 RMK A01 T00521020  RH  060%=      5-min Rain = 0
KBO1 170930Z 36016G21KT 05/M02 A3016 RMK A01 T00521020  RH  060%=      5-min Rain = 0
KBO1 170931Z 36016KT 05/M02 A3016 RMK A01 T00521020  RH  060%=      5-min Rain = 0
KBO1 170932Z 35016KT 05/M02 A3016 RMK A01 T00531020  RH  060%=      5-min Rain = 0
KBO1 170933Z 36016KT 05/M02 A3016 RMK A01 T00531019  RH  060%=      5-min Rain = 0
KBO1 170934Z 36016KT 05/M02 A3016 RMK A01 T00521019  RH  060%=      5-min Rain = 0
KBO1 170935Z 35014KT 05/M02 A3016 RMK A01 T00521019  RH  060%=      5-min Rain = 0
KBO1 170936Z 35015KT 05/M02 A3016 RMK A01 T00511020  RH  060%=      5-min Rain = 0
KBO1 170937Z 36015KT 05/M02 A3016 RMK A01 T00511019  RH  060%=      5-min Rain = 0
KBO1 170938Z 35016KT 05/M02 A3016 RMK A01 T00511019  RH  061%=      5-min Rain = 0
KBO1 170939Z 36015KT 05/M02 A3016 RMK A01 T00511019  RH  061%=      5-min Rain = 0
KBO1 170940Z 36016KT 05/M02 A3016 RMK A01 T00511019  RH  061%=      5-min Rain = 0
KBO1 170941Z 36015KT 05/M02 A3016 RMK A01 T00511018  RH  061%=      5-min Rain = 0
KBO1 170942Z 36017KT 05/M02 A3016 RMK A01 T00511018  RH  061%=      5-min Rain = 0
KBO1 170943Z 35014KT 05/M02 A3016 RMK A01 T00501018  RH  061%=      5-min Rain = 0
KBO1 170944Z 36014KT 05/M02 A3016 RMK A01 T00501018  RH  061%=      5-min Rain = 0
KBO1 170945Z 35014KT 05/M02 A3017 RMK A01 T00501019  RH  061%=      5-min Rain = 0
KBO1 170946Z 36015KT 05/M02 A3017 RMK A01 T00481019  RH  062%=      5-min Rain = 0
KBO1 170947Z 35014KT 05/M02 A3017 RMK A01 T00491018  RH  062%=      5-min Rain = 0
KBO1 170948Z 35013KT 05/M02 A3017 RMK A01 T00491018  RH  062%=      5-min Rain = 0
KBO1 170949Z 35014KT 05/M02 A3017 RMK A01 T00481019  RH  062%=      5-min Rain = 0
KBO1 170950Z 35013KT 05/M02 A3017 RMK A01 T00471019  RH  062%=      5-min Rain = 0
KBO1 170951Z 35013KT 05/M02 A3017 RMK A01 T00461019  RH  063%=      5-min Rain = 0
KBO1 170952Z 35014KT 05/M02 A3017 RMK A01 T00461019  RH  063%=      5-min Rain = 0
KBO1 170953Z 35013KT 05/M02 A3017 RMK A01 T00461019  RH  063%=      5-min Rain = 0
KBO1 170954Z 35014KT 05/M02 A3017 RMK A01 T00451019  RH  063%=      5-min Rain = 0
KBO1 170955Z 35013KT 05/M02 A3016 RMK A01 T00451019  RH  063%=      5-min Rain = 0
KBO1 170956Z 35013KT 04/M02 A3016 RMK A01 T00441019  RH  063%=      5-min Rain = 0
KBO1 170957Z 35014KT 04/M02 A3016 RMK A01 T00441019  RH  064%=      5-min Rain = 0
KBO1 170958Z 35013KT 04/M02 A3016 RMK A01 T00431019  RH  064%=      5-min Rain = 0
KBO1 170959Z 35013KT 04/M02 A3017 RMK A01 T00431019  RH  064%=      5-min Rain = 0
KBO1 171000Z 35013KT 04/M02 A3016 RMK A01 T00431019  RH  064%=      5-min Rain = 0
KBO1 171001Z 35014KT 04/M02 A3016 RMK A01 T00431018  RH  064%=      5-min Rain = 0
KBO1 171002Z 35013KT 04/M02 A3017 RMK A01 T00421019  RH  065%=      5-min Rain = 0
KBO1 171003Z 35014KT 04/M02 A3017 RMK A01 T00421018  RH  065%=      5-min Rain = 0
KBO1 171004Z 35013KT 04/M02 A3017 RMK A01 T00421018  RH  065%=      5-min Rain = 0
KBO1 171005Z 35013KT 04/M02 A3017 RMK A01 T00411019  RH  065%=      5-min Rain = 0
KBO1 171006Z 35013KT 04/M02 A3017 RMK A01 T00411018  RH  065%=      5-min Rain = 0
KBO1 171007Z 35014KT 04/M02 A3017 RMK A01 T00401018  RH  066%=      5-min Rain = 0
KBO1 171008Z 35014KT 04/M02 A3017 RMK A01 T00401018  RH  066%=      5-min Rain = 0
KBO1 171009Z 35013KT 04/M02 A3017 RMK A01 T00401018  RH  066%=      5-min Rain = 0
KBO1 171010Z 35014KT 04/M02 A3017 RMK A01 T00401017  RH  066%=      5-min Rain = 0
KBO1 171011Z 35013KT 04/M02 A3017 RMK A01 T00401017  RH  066%=      5-min Rain = 0
KBO1 171012Z 35014KT 04/M02 A3017 RMK A01 T00401017  RH  066%=      5-min Rain = 0
KBO1 171013Z 35014KT 04/M02 A3017 RMK A01 T00401017  RH  066%=      5-min Rain = 0
KBO1 171014Z 35014KT 04/M02 A3017 RMK A01 T00401017  RH  066%=      5-min Rain = 0
KBO1 171015Z 35013KT 04/M02 A3017 RMK A01 T00401017  RH  066%=      5-min Rain = 0
KBO1 171016Z 35014KT 04/M02 A3017 RMK A01 T00401017  RH  066%=      5-min Rain = 0
KBO1 171017Z 35013KT 04/M02 A3017 RMK A01 T00401017  RH  066%=      5-min Rain = 0
KBO1 171018Z 35013KT 04/M02 A3017 RMK A01 T00401017  RH  066%=      5-min Rain = 0
KBO1 171019Z 35014KT 04/M02 A3017 RMK A01 T00401016  RH  067%=      5-min Rain = 0
KBO1 171020Z 35014KT 04/M02 A3017 RMK A01 T00401016  RH  067%=      5-min Rain = 0
KBO1 171021Z 35014KT 04/M02 A3017 RMK A01 T00401016  RH  067%=      5-min Rain = 0
KBO1 171022Z 35014KT 04/M02 A3017 RMK A01 T00401016  RH  067%=      5-min Rain = 0
KBO1 171023Z 35014KT 04/M02 A3017 RMK A01 T00401016  RH  067%=      5-min Rain = 0
KBO1 171024Z 35013KT 04/M02 A3017 RMK A01 T00401016  RH  067%=      5-min Rain = 0
KBO1 171025Z 35013KT 04/M02 A3017 RMK A01 T00401016  RH  067%=      5-min Rain = 0
KBO1 171026Z 35013KT 04/M02 A3017 RMK A01 T00401016  RH  067%=      5-min Rain = 0
KBO1 171027Z 35013KT 04/M02 A3017 RMK A01 T00401016  RH  067%=      5-min Rain = 0
KBO1 171028Z 35014KT 04/M02 A3017 RMK A01 T00391016  RH  067%=      5-min Rain = 0
KBO1 171029Z 35013KT 04/M02 A3017 RMK A01 T00391016  RH  067%=      5-min Rain = 0
KBO1 171030Z 34014KT 04/M02 A3017 RMK A01 T00391016  RH  067%=      5-min Rain = 0
KBO1 171031Z 34013KT 04/M02 A3017 RMK A01 T00391016  RH  067%=      5-min Rain = 0
KBO1 171032Z 34013KT 04/M02 A3017 RMK A01 T00391016  RH  067%=      5-min Rain = 0
KBO1 171033Z 35014KT 04/M02 A3017 RMK A01 T00381016  RH  067%=      5-min Rain = 0
KBO1 171034Z 35013KT 04/M02 A3017 RMK A01 T00381016  RH  068%=      5-min Rain = 0
KBO1 171035Z 34014KT 04/M02 A3017 RMK A01 T00381016  RH  068%=      5-min Rain = 0
KBO1 171036Z 34014KT 04/M02 A3017 RMK A01 T00381016  RH  068%=      5-min Rain = 0
KBO1 171037Z 35014KT 04/M02 A3017 RMK A01 T00381016  RH  068%=      5-min Rain = 0
KBO1 171038Z 35015KT 04/M02 A3017 RMK A01 T00371016  RH  068%=      5-min Rain = 0
KBO1 171039Z 35015KT 04/M02 A3017 RMK A01 T00371016  RH  068%=      5-min Rain = 0
KBO1 171040Z 34013KT 04/M02 A3017 RMK A01 T00371016  RH  068%=      5-min Rain = 0
KBO1 171041Z 35014KT 04/M02 A3017 RMK A01 T00371016  RH  068%=      5-min Rain = 0
KBO1 171042Z 35014KT 04/M02 A3017 RMK A01 T00371016  RH  068%=      5-min Rain = 0
KBO1 171043Z 35014KT 04/M02 A3017 RMK A01 T00371016  RH  068%=      5-min Rain = 0
KBO1 171044Z 34015KT 04/M02 A3017 RMK A01 T00371016  RH  068%=      5-min Rain = 0
KBO1 171045Z 35013KT 04/M02 A3018 RMK A01 T00371016  RH  068%=      5-min Rain = 0
KBO1 171046Z 35013KT 04/M02 A3018 RMK A01 T00361016  RH  068%=      5-min Rain = 0
KBO1 171047Z 34013KT 04/M02 A3018 RMK A01 T00351017  RH  069%=      5-min Rain = 0
KBO1 171048Z 34013KT 03/M02 A3018 RMK A01 T00341017  RH  069%=      5-min Rain = 0
KBO1 171049Z 34014KT 03/M02 A3018 RMK A01 T00341017  RH  069%=      5-min Rain = 0
KBO1 171050Z 35012KT 03/M02 A3018 RMK A01 T00341017  RH  069%=      5-min Rain = 0
KBO1 171051Z 35013KT 03/M02 A3018 RMK A01 T00341017  RH  069%=      5-min Rain = 0
KBO1 171052Z 34013KT 03/M02 A3018 RMK A01 T00331017  RH  070%=      5-min Rain = 0
KBO1 171053Z 34013KT 03/M02 A3018 RMK A01 T00331017  RH  070%=      5-min Rain = 0
KBO1 171054Z 34013KT 03/M02 A3018 RMK A01 T00331017  RH  070%=      5-min Rain = 0
KBO1 171055Z 35013KT 03/M02 A3018 RMK A01 T00331017  RH  070%=      5-min Rain = 0
KBO1 171056Z 34013KT 03/M02 A3018 RMK A01 T00321017  RH  070%=      5-min Rain = 0
KBO1 171057Z 34013KT 03/M02 A3018 RMK A01 T00321017  RH  070%=      5-min Rain = 0
KBO1 171058Z 34013KT 03/M02 A3018 RMK A01 T00321017  RH  070%=      5-min Rain = 0
KBO1 171059Z 35012KT 03/M02 A3018 RMK A01 T00331016  RH  070%=      5-min Rain = 0
KBO1 171100Z 35012KT 03/M02 A3018 RMK A01 T00331016  RH  070%=      5-min Rain = 0
KBO1 171101Z 34013KT 03/M02 A3018 RMK A01 T00311017  RH  070%=      5-min Rain = 0
KBO1 171102Z 34014KT 03/M02 A3018 RMK A01 T00311017  RH  071%=      5-min Rain = 0
KBO1 171103Z 34014KT 03/M02 A3018 RMK A01 T00311016  RH  071%=      5-min Rain = 0
KBO1 171104Z 34013KT 03/M02 A3018 RMK A01 T00311016  RH  071%=      5-min Rain = 0
KBO1 171105Z 34013KT 03/M02 A3018 RMK A01 T00311017  RH  071%=      5-min Rain = 0
KBO1 171106Z 34013KT 03/M02 A3018 RMK A01 T00321016  RH  071%=      5-min Rain = 0
KBO1 171107Z 34013KT 03/M02 A3019 RMK A01 T00311017  RH  071%=      5-min Rain = 0
KBO1 171108Z 34013KT 03/M02 A3019 RMK A01 T00311017  RH  071%=      5-min Rain = 0
KBO1 171109Z 34012KT 03/M02 A3019 RMK A01 T00301017  RH  071%=      5-min Rain = 0
KBO1 171110Z 34013KT 03/M02 A3019 RMK A01 T00291017  RH  072%=      5-min Rain = 0
KBO1 171111Z 35013KT 03/M02 A3019 RMK A01 T00291017  RH  072%=      5-min Rain = 0
KBO1 171112Z 35012KT 03/M02 A3018 RMK A01 T00291017  RH  072%=      5-min Rain = 0
KBO1 171113Z 35012KT 03/M02 A3019 RMK A01 T00291017  RH  072%=      5-min Rain = 0
KBO1 171114Z 35012KT 03/M02 A3019 RMK A01 T00281017  RH  072%=      5-min Rain = 0
KBO1 171115Z 35013KT 03/M02 A3019 RMK A01 T00271017  RH  073%=      5-min Rain = 0
KBO1 171116Z 34013KT 03/M02 A3019 RMK A01 T00271017  RH  073%=      5-min Rain = 0
KBO1 171117Z 34013KT 03/M02 A3019 RMK A01 T00271017  RH  073%=      5-min Rain = 0
KBO1 171118Z 35013KT 03/M02 A3019 RMK A01 T00271017  RH  073%=      5-min Rain = 0
KBO1 171119Z 34013KT 03/M02 A3019 RMK A01 T00261017  RH  073%=      5-min Rain = 0
KBO1 171120Z 35013KT 03/M02 A3019 RMK A01 T00261017  RH  073%=      5-min Rain = 0
KBO1 171121Z 35012KT 03/M02 A3019 RMK A01 T00261017  RH  073%=      5-min Rain = 0
KBO1 171122Z 35012KT 03/M02 A3019 RMK A01 T00261017  RH  073%=      5-min Rain = 0
KBO1 171123Z 35013KT 03/M02 A3019 RMK A01 T00261016  RH  074%=      5-min Rain = 0
KBO1 171124Z 34012KT 03/M02 A3019 RMK A01 T00261016  RH  074%=      5-min Rain = 0
KBO1 171125Z 34014KT 03/M02 A3019 RMK A01 T00261016  RH  074%=      5-min Rain = 0
KBO1 171126Z 34013KT 03/M02 A3019 RMK A01 T00261016  RH  074%=      5-min Rain = 0
KBO1 171127Z 35013KT 03/M02 A3019 RMK A01 T00261016  RH  074%=      5-min Rain = 0
KBO1 171128Z 35012KT 03/M02 A3019 RMK A01 T00261016  RH  074%=      5-min Rain = 0
KBO1 171129Z 35012KT 03/M02 A3019 RMK A01 T00251016  RH  074%=      5-min Rain = 0
KBO1 171130Z 35011KT 03/M02 A3019 RMK A01 T00251016  RH  074%=      5-min Rain = 0
KBO1 171131Z 35012KT 03/M02 A3019 RMK A01 T00251016  RH  074%=      5-min Rain = 0
KBO1 171132Z 35012KT 03/M02 A3019 RMK A01 T00251016  RH  074%=      5-min Rain = 0
KBO1 171133Z 35012KT 03/M02 A3019 RMK A01 T00251016  RH  074%=      5-min Rain = 0
KBO1 171134Z 34013KT 03/M02 A3019 RMK A01 T00251016  RH  075%=      5-min Rain = 0
KBO1 171135Z 34013KT 02/M02 A3019 RMK A01 T00241016  RH  075%=      5-min Rain = 0
KBO1 171136Z 35013KT 02/M02 A3019 RMK A01 T00241016  RH  075%=      5-min Rain = 0
KBO1 171137Z 34014KT 02/M02 A3019 RMK A01 T00241016  RH  075%=      5-min Rain = 0
KBO1 171138Z 34014KT 02/M02 A3019 RMK A01 T00241016  RH  075%=      5-min Rain = 0
KBO1 171139Z 34014KT 02/M02 A3019 RMK A01 T00241016  RH  075%=      5-min Rain = 0
KBO1 171140Z 34013KT 02/M02 A302 RMK A01 T00241016  RH  075%=      5-min Rain = 0
KBO1 171141Z 35014KT 02/M02 A302 RMK A01 T00241016  RH  075%=      5-min Rain = 0
KBO1 171142Z 34014KT 02/M02 A302 RMK A01 T00231016  RH  075%=      5-min Rain = 0
KBO1 171143Z 35014KT 02/M02 A302 RMK A01 T00231016  RH  075%=      5-min Rain = 0
KBO1 171144Z 34014KT 02/M02 A302 RMK A01 T00241016  RH  075%=      5-min Rain = 0
KBO1 171145Z 34013KT 02/M02 A302 RMK A01 T00241016  RH  075%=      5-min Rain = 0
KBO1 171146Z 34013KT 02/M02 A302 RMK A01 T00231016  RH  075%=      5-min Rain = 0
KBO1 171147Z 34013KT 02/M02 A302 RMK A01 T00221016  RH  075%=      5-min Rain = 0
KBO1 171148Z 34013KT 02/M02 A302 RMK A01 T00231016  RH  076%=      5-min Rain = 0
KBO1 171149Z 34012KT 02/M02 A302 RMK A01 T00231016  RH  076%=      5-min Rain = 0
KBO1 171150Z 34013KT 02/M02 A302 RMK A01 T00221017  RH  076%=      5-min Rain = 0
KBO1 171151Z 34013KT 02/M02 A302 RMK A01 T00211017  RH  076%=      5-min Rain = 0
KBO1 171152Z 34013KT 02/M02 A3021 RMK A01 T00211016  RH  076%=      5-min Rain = 0
KBO1 171153Z 34013KT 02/M02 A3021 RMK A01 T00211016  RH  076%=      5-min Rain = 0
KBO1 171154Z 34013KT 02/M02 A3021 RMK A01 T00211016  RH  077%=      5-min Rain = 0
KBO1 171155Z 34013KT 02/M02 A3021 RMK A01 T00211015  RH  077%=      5-min Rain = 0
KBO1 171156Z 35012KT 02/M02 A3021 RMK A01 T00211015  RH  077%=      5-min Rain = 0
KBO1 171157Z 34013KT 02/M02 A3021 RMK A01 T00211015  RH  077%=      5-min Rain = 0
KBO1 171158Z 34012KT 02/M02 A3021 RMK A01 T00211015  RH  077%=      5-min Rain = 0
KBO1 171159Z 34012KT 02/M02 A3021 RMK A01 T00211015  RH  077%=      5-min Rain = 0
KBO1 171200Z 34011KT 02/M02 A3021 RMK A01 T00201015  RH  077%=      5-min Rain = 0
KBO1 171201Z 34011KT 02/M02 A3021 RMK A01 T00201016  RH  077%=      5-min Rain = 0
KBO1 171202Z 34011KT 02/M02 A3021 RMK A01 T00201015  RH  077%=      5-min Rain = 0
KBO1 171203Z 34011KT 02/M02 A3021 RMK A01 T00191016  RH  077%=      5-min Rain = 0
KBO1 171204Z 34011KT 02/M02 A3021 RMK A01 T00191016  RH  078%=      5-min Rain = 0
KBO1 171205Z 34011KT 02/M02 A3021 RMK A01 T00181016  RH  078%=      5-min Rain = 0
KBO1 171206Z 34010KT 02/M02 A3021 RMK A01 T00181016  RH  078%=      5-min Rain = 0
KBO1 171207Z 34010KT 02/M02 A3021 RMK A01 T00181016  RH  078%=      5-min Rain = 0
KBO1 171208Z 34010KT 02/M02 A3021 RMK A01 T00171016  RH  078%=      5-min Rain = 0
KBO1 171209Z 34010KT 02/M02 A3021 RMK A01 T00171016  RH  079%=      5-min Rain = 0
KBO1 171210Z 34010KT 02/M02 A3022 RMK A01 T00171016  RH  079%=      5-min Rain = 0
KBO1 171211Z 34010KT 02/M02 A3022 RMK A01 T00171016  RH  079%=      5-min Rain = 0
KBO1 171212Z 34010KT 02/M02 A3022 RMK A01 T00161016  RH  079%=      5-min Rain = 0
KBO1 171213Z 34010KT 02/M02 A3022 RMK A01 T00161016  RH  079%=      5-min Rain = 0
KBO1 171214Z 34009KT 02/M02 A3022 RMK A01 T00161016  RH  079%=      5-min Rain = 0
KBO1 171215Z 34009KT 02/M02 A3021 RMK A01 T00151016  RH  080%=      5-min Rain = 0
KBO1 171216Z 34009KT 02/M02 A3022 RMK A01 T00151016  RH  080%=      5-min Rain = 0
KBO1 171217Z 34009KT 02/M02 A3022 RMK A01 T00151016  RH  080%=      5-min Rain = 0
KBO1 171218Z 34009KT 02/M02 A3022 RMK A01 T00151016  RH  080%=      5-min Rain = 0
KBO1 171219Z 34009KT 02/M02 A3022 RMK A01 T00151015  RH  080%=      5-min Rain = 0
KBO1 171220Z 34009KT 02/M02 A3022 RMK A01 T00151015  RH  080%=      5-min Rain = 0
KBO1 171221Z 34009KT 02/M02 A3022 RMK A01 T00161015  RH  080%=      5-min Rain = 0
KBO1 171222Z 34008KT 02/M02 A3022 RMK A01 T00161015  RH  080%=      5-min Rain = 0
KBO1 171223Z 34008KT 02/M01 A3022 RMK A01 T00151014  RH  081%=      5-min Rain = 0
KBO1 171224Z 34009KT 02/M01 A3022 RMK A01 T00151014  RH  081%=      5-min Rain = 0
KBO1 171225Z 34009KT 02/M01 A3022 RMK A01 T00161013  RH  081%=      5-min Rain = 0
KBO1 171226Z 34008KT 02/M01 A3022 RMK A01 T00161013  RH  081%=      5-min Rain = 0
KBO1 171227Z 34008KT 02/M01 A3022 RMK A01 T00161013  RH  081%=      5-min Rain = 0
KBO1 171228Z 34008KT 02/M01 A3022 RMK A01 T00161013  RH  081%=      5-min Rain = 0
KBO1 171229Z 35008KT 02/M01 A3022 RMK A01 T00161012  RH  081%=      5-min Rain = 0
KBO1 171230Z 34009KT 02/M01 A3022 RMK A01 T00161012  RH  082%=      5-min Rain = 0
KBO1 171231Z 35008KT 02/M01 A3022 RMK A01 T00161012  RH  082%=      5-min Rain = 0
KBO1 171232Z 34008KT 02/M01 A3022 RMK A01 T00161011  RH  083%=      5-min Rain = 0
KBO1 171233Z 35009KT 02/M01 A3022 RMK A01 T00161011  RH  083%=      5-min Rain = 0
KBO1 171234Z 35009KT 02/M01 A3022 RMK A01 T00161009  RH  083%=      5-min Rain = 0
KBO1 171235Z 35009KT 02/M01 A3022 RMK A01 T00171009  RH  083%=      5-min Rain = 0
KBO1 171236Z 35010KT 02/M01 A3022 RMK A01 T00181008  RH  083%=      5-min Rain = 0
KBO1 171237Z 35009KT 02/M01 A3022 RMK A01 T00191007  RH  083%=      5-min Rain = 0
KBO1 171238Z 35011KT 02/M01 A3022 RMK A01 T00191007  RH  083%=      5-min Rain = 0
KBO1 171239Z 35011KT 02/M01 A3022 RMK A01 T00191006  RH  083%=      5-min Rain = 0
KBO1 171240Z 35011KT 02/M01 A3022 RMK A01 T00201005  RH  084%=      5-min Rain = 0
KBO1 171241Z 35011KT 02/M00 A3022 RMK A01 T00211004  RH  084%=      5-min Rain = 0
KBO1 171242Z 36012KT 02/M00 A3022 RMK A01 T00221003  RH  083%=      5-min Rain = 0
KBO1 171243Z 35012KT 02/M00 A3022 RMK A01 T00231003  RH  083%=      5-min Rain = 0
KBO1 171244Z 35012KT 02/M00 A3022 RMK A01 T00231003  RH  083%=      5-min Rain = 0
KBO1 171245Z 36013KT 02/M00 A3022 RMK A01 T00231002  RH  083%=      5-min Rain = 0
KBO1 171246Z 36012KT 02/M00 A3022 RMK A01 T00241002  RH  083%=      5-min Rain = 0
KBO1 171247Z 36013KT 03/M00 A3022 RMK A01 T00251002  RH  083%=      5-min Rain = 0
KBO1 171248Z 36012KT 03/M00 A3022 RMK A01 T00251002  RH  083%=      5-min Rain = 0
KBO1 171249Z 36012KT 03/M00 A3022 RMK A01 T00251002  RH  083%=      5-min Rain = 0
KBO1 171250Z 35013KT 03/M00 A3022 RMK A01 T00251001  RH  083%=      5-min Rain = 0
KBO1 171251Z 35012KT 03/M00 A3022 RMK A01 T00251001  RH  083%=      5-min Rain = 0
KBO1 171252Z 35012KT 03/00 A3022 RMK A01 T002600-0  RH  083%=      5-min Rain = 0
KBO1 171253Z 35013KT 03/00 A3022 RMK A01 T002600-0  RH  083%=      5-min Rain = 0
KBO1 171254Z 35012KT 03/00 A3022 RMK A01 T00260000  RH  083%=      5-min Rain = 0
KBO1 171255Z 35012KT 03/00 A3022 RMK A01 T00260001  RH  083%=      5-min Rain = 0
KBO1 171256Z 35012KT 03/00 A3022 RMK A01 T00260001  RH  083%=      5-min Rain = 0
KBO1 171257Z 36013KT 03/00 A3022 RMK A01 T00260001  RH  083%=      5-min Rain = 0
KBO1 171258Z 35013KT 03/00 A3022 RMK A01 T00260001  RH  084%=      5-min Rain = 0
KBO1 171259Z 36012KT 03/00 A3022 RMK A01 T00270002  RH  084%=      5-min Rain = 0
KBO1 171300Z 36013KT 03/00 A3022 RMK A01 T00260001  RH  084%=      5-min Rain = 0
KBO1 171301Z 36013KT 03/00 A3022 RMK A01 T00270002  RH  084%=      5-min Rain = 0
KBO1 171302Z 36014KT 03/00 A3022 RMK A01 T00270002  RH  084%=      5-min Rain = 0
KBO1 171303Z 36013KT 03/00 A3023 RMK A01 T00260002  RH  084%=      5-min Rain = 0
KBO1 171304Z 35013KT 03/00 A3023 RMK A01 T00260002  RH  084%=      5-min Rain = 0
KBO1 171305Z 36014KT 03/00 A3023 RMK A01 T00260003  RH  085%=      5-min Rain = 0
KBO1 171306Z 35014KT 03/00 A3023 RMK A01 T00260003  RH  085%=      5-min Rain = 0
KBO1 171307Z 35014KT 03/00 A3023 RMK A01 T00260003  RH  085%=      5-min Rain = 0
KBO1 171308Z 35013KT 03/00 A3023 RMK A01 T00260003  RH  085%=      5-min Rain = 0
KBO1 171309Z 35012KT 03/00 A3023 RMK A01 T00260003  RH  085%=      5-min Rain = 0
KBO1 171310Z 35012KT 03/00 A3023 RMK A01 T00250002  RH  085%=      5-min Rain = 0
KBO1 171311Z 35013KT 03/00 A3023 RMK A01 T00250002  RH  085%=      5-min Rain = 0
KBO1 171312Z 36013KT 03/00 A3023 RMK A01 T00250003  RH  085%=      5-min Rain = 0
KBO1 171313Z 35013KT 03/00 A3023 RMK A01 T00250003  RH  086%=      5-min Rain = 0
KBO1 171314Z 36013KT 03/00 A3023 RMK A01 T00250003  RH  086%=      5-min Rain = 0
KBO1 171315Z 35014KT 02/00 A3023 RMK A01 T00240003  RH  086%=      5-min Rain = 0
KBO1 171316Z 35013KT 02/00 A3023 RMK A01 T00240003  RH  086%=      5-min Rain = 0
KBO1 171317Z 36012KT 02/00 A3023 RMK A01 T00240003  RH  086%=      5-min Rain = 0
KBO1 171318Z 35013KT 02/00 A3023 RMK A01 T00240003  RH  086%=      5-min Rain = 0
KBO1 171319Z 35012KT 02/00 A3023 RMK A01 T00240004  RH  087%=      5-min Rain = 0
KBO1 171320Z 35013KT 02/00 A3023 RMK A01 T00240004  RH  087%=      5-min Rain = 0
KBO1 171321Z 35012KT 02/00 A3023 RMK A01 T00240004  RH  087%=      5-min Rain = 0
KBO1 171322Z 35012KT 02/00 A3023 RMK A01 T00240004  RH  087%=      5-min Rain = 0
KBO1 171323Z 35013KT 02/00 A3023 RMK A01 T00230004  RH  087%=      5-min Rain = 0
KBO1 171324Z 35012KT 02/01 A3023 RMK A01 T00230005  RH  087%=      5-min Rain = 0
KBO1 171325Z 35012KT 02/01 A3023 RMK A01 T00230005  RH  088%=      5-min Rain = 0
KBO1 171326Z 35013KT 02/01 A3023 RMK A01 T00240005  RH  088%=      5-min Rain = 0
KBO1 171327Z 35012KT 02/01 A3023 RMK A01 T00230005  RH  088%=      5-min Rain = 0
KBO1 171328Z 35013KT 02/01 A3023 RMK A01 T00230005  RH  088%=      5-min Rain = 0
KBO1 171329Z 35011KT 02/01 A3023 RMK A01 T00230005  RH  088%=      5-min Rain = 0
KBO1 171330Z 35011KT 02/01 A3023 RMK A01 T00230005  RH  088%=      5-min Rain = 0
KBO1 171331Z 35011KT 02/00 A3024 RMK A01 T00220004  RH  088%=      5-min Rain = 0
KBO1 171332Z 35011KT 02/01 A3024 RMK A01 T00220005  RH  088%=      5-min Rain = 0
KBO1 171333Z 35012KT 02/01 A3023 RMK A01 T00220005  RH  088%=      5-min Rain = 0
KBO1 171334Z 35011KT 02/01 A3024 RMK A01 T00230006  RH  089%=      5-min Rain = 0
KBO1 171335Z 35010KT 02/01 A3024 RMK A01 T00230005  RH  088%=      5-min Rain = 0
KBO1 171336Z 35011KT 02/01 A3024 RMK A01 T00230005  RH  088%=      5-min Rain = 0
KBO1 171337Z 35010KT 02/01 A3024 RMK A01 T00230005  RH  088%=      5-min Rain = 0
KBO1 171338Z 35010KT 02/01 A3024 RMK A01 T00230005  RH  088%=      5-min Rain = 0
KBO1 171339Z 36011KT 02/01 A3024 RMK A01 T00230005  RH  088%=      5-min Rain = 0
KBO1 171340Z 35010KT 02/01 A3024 RMK A01 T00230005  RH  088%=      5-min Rain = 0
KBO1 171341Z 35011KT 02/01 A3024 RMK A01 T00230005  RH  088%=      5-min Rain = 0
KBO1 171342Z 36009KT 02/01 A3024 RMK A01 T00230006  RH  088%=      5-min Rain = 0
KBO1 171343Z 35009KT 02/01 A3024 RMK A01 T00230005  RH  088%=      5-min Rain = 0
KBO1 171344Z 35008KT 02/01 A3024 RMK A01 T00220005  RH  088%=      5-min Rain = 0
KBO1 171345Z 35009KT 02/01 A3024 RMK A01 T00230005  RH  088%=      5-min Rain = 0
KBO1 171346Z 35008KT 02/01 A3024 RMK A01 T00230006  RH  089%=      5-min Rain = 0
KBO1 171347Z 34008KT 02/01 A3024 RMK A01 T00220006  RH  089%=      5-min Rain = 0
KBO1 171348Z 34008KT 02/01 A3024 RMK A01 T00220005  RH  089%=      5-min Rain = 0
KBO1 171349Z 34009KT 02/01 A3024 RMK A01 T00210005  RH  089%=      5-min Rain = 0
KBO1 171350Z 35008KT 02/01 A3024 RMK A01 T00210005  RH  089%=      5-min Rain = 0
KBO1 171351Z 35007KT 02/01 A3024 RMK A01 T00210006  RH  089%=      5-min Rain = 0
KBO1 171352Z 35009KT 02/01 A3024 RMK A01 T00220006  RH  089%=      5-min Rain = 0
KBO1 171353Z 35008KT 02/01 A3024 RMK A01 T00220006  RH  089%=      5-min Rain = 0
KBO1 171354Z 35008KT 02/01 A3024 RMK A01 T00230006  RH  089%=      5-min Rain = 0
KBO1 171355Z 35009KT 02/01 A3025 RMK A01 T00220006  RH  089%=      5-min Rain = 0
KBO1 171356Z 35008KT 02/01 A3025 RMK A01 T00220006  RH  089%=      5-min Rain = 0
KBO1 171357Z 35009KT 02/01 A3025 RMK A01 T00220007  RH  090%=      5-min Rain = 0
KBO1 171358Z 36009KT 02/01 A3025 RMK A01 T00230007  RH  090%=      5-min Rain = 0
KBO1 171359Z 36009KT 02/01 A3024 RMK A01 T00230008  RH  090%=      5-min Rain = 0
KBO1 171400Z 36008KT 02/01 A3024 RMK A01 T00240008  RH  089%=      5-min Rain = 0
KBO1 171401Z 34010KT 02/01 A3024 RMK A01 T00240008  RH  089%=      5-min Rain = 0
KBO1 171402Z 34010KT 03/01 A3025 RMK A01 T00250008  RH  089%=      5-min Rain = 0
KBO1 171403Z 35009KT 03/01 A3025 RMK A01 T00250008  RH  089%=      5-min Rain = 0
KBO1 171404Z 35010KT 03/01 A3025 RMK A01 T00250008  RH  089%=      5-min Rain = 0
KBO1 171405Z 34010KT 03/01 A3024 RMK A01 T00250008  RH  088%=      5-min Rain = 0
KBO1 171406Z 35009KT 03/01 A3024 RMK A01 T00260008  RH  088%=      5-min Rain = 0
KBO1 171407Z 35011KT 03/01 A3024 RMK A01 T00260008  RH  088%=      5-min Rain = 0
KBO1 171408Z 36010KT 03/01 A3024 RMK A01 T00260009  RH  088%=      5-min Rain = 0
KBO1 171409Z 36011KT 03/01 A3024 RMK A01 T00270009  RH  088%=      5-min Rain = 0
KBO1 171410Z 35011KT 03/01 A3024 RMK A01 T00280009  RH  088%=      5-min Rain = 0
KBO1 171411Z 36011KT 03/01 A3024 RMK A01 T00290010  RH  087%=      5-min Rain = 0
KBO1 171412Z 00010KT 03/01 A3024 RMK A01 T00290010  RH  087%=      5-min Rain = 0
KBO1 171413Z 36012KT 03/01 A3024 RMK A01 T00300010  RH  087%=      5-min Rain = 0
KBO1 171414Z 35012KT 03/01 A3025 RMK A01 T00310010  RH  086%=      5-min Rain = 0
KBO1 171415Z 36012KT 03/01 A3025 RMK A01 T00310010  RH  086%=      5-min Rain = 0
KBO1 171416Z 36013KT 03/01 A3025 RMK A01 T00310010  RH  086%=      5-min Rain = 0
KBO1 171417Z 36012KT 03/01 A3024 RMK A01 T00320010  RH  086%=      5-min Rain = 0
KBO1 171418Z 36012KT 03/01 A3025 RMK A01 T00330010  RH  085%=      5-min Rain = 0
KBO1 171419Z 36013KT 03/01 A3025 RMK A01 T00330010  RH  085%=      5-min Rain = 0
KBO1 171420Z 35013KT 03/01 A3025 RMK A01 T00330010  RH  085%=      5-min Rain = 0
KBO1 171421Z 36012KT 03/01 A3025 RMK A01 T00340010  RH  085%=      5-min Rain = 0
KBO1 171422Z 35011KT 03/01 A3025 RMK A01 T00340010  RH  084%=      5-min Rain = 0
KBO1 171423Z 36011KT 04/01 A3025 RMK A01 T00350011  RH  084%=      5-min Rain = 0
KBO1 171424Z 35013KT 04/01 A3025 RMK A01 T00350011  RH  084%=      5-min Rain = 0
KBO1 171425Z 35012KT 04/01 A3025 RMK A01 T00360010  RH  083%=      5-min Rain = 0
KBO1 171426Z 35012KT 04/01 A3025 RMK A01 T00360010  RH  083%=      5-min Rain = 0
KBO1 171427Z 35012KT 04/01 A3025 RMK A01 T00360010  RH  083%=      5-min Rain = 0
KBO1 171428Z 35012KT 04/01 A3025 RMK A01 T00370011  RH  083%=      5-min Rain = 0
KBO1 171429Z 36012KT 04/01 A3025 RMK A01 T00370011  RH  083%=      5-min Rain = 0
KBO1 171430Z 36013KT 04/01 A3025 RMK A01 T00380011  RH  083%=      5-min Rain = 0
KBO1 171431Z 36015KT 04/01 A3025 RMK A01 T00380011  RH  082%=      5-min Rain = 0
KBO1 171432Z 36013KT 04/01 A3025 RMK A01 T00380011  RH  082%=      5-min Rain = 0
KBO1 171433Z 36012KT 04/01 A3025 RMK A01 T00390011  RH  082%=      5-min Rain = 0
KBO1 171434Z 36013KT 04/01 A3025 RMK A01 T00400012  RH  082%=      5-min Rain = 0
KBO1 171435Z 36011KT 04/01 A3025 RMK A01 T00400012  RH  082%=      5-min Rain = 0
KBO1 171436Z 00010KT 04/01 A3025 RMK A01 T00410012  RH  082%=      5-min Rain = 0
KBO1 171437Z 00013KT 04/01 A3025 RMK A01 T00420013  RH  081%=      5-min Rain = 0
KBO1 171438Z 35013KT 04/01 A3025 RMK A01 T00430012  RH  081%=      5-min Rain = 0
KBO1 171439Z 36013KT 04/01 A3025 RMK A01 T00440013  RH  080%=      5-min Rain = 0
KBO1 171440Z 00012KT 04/01 A3025 RMK A01 T00440013  RH  080%=      5-min Rain = 0
KBO1 171441Z 36012KT 05/01 A3025 RMK A01 T00450013  RH  080%=      5-min Rain = 0
KBO1 171442Z 00015KT 05/01 A3025 RMK A01 T00450013  RH  080%=      5-min Rain = 0
KBO1 171443Z 00015KT 05/01 A3025 RMK A01 T00450013  RH  079%=      5-min Rain = 0
KBO1 171444Z 36014KT 05/01 A3025 RMK A01 T00450013  RH  079%=      5-min Rain = 0
KBO1 171445Z 36014KT 05/01 A3025 RMK A01 T00460013  RH  079%=      5-min Rain = 0
KBO1 171446Z 00015KT 05/01 A3025 RMK A01 T00460013  RH  079%=      5-min Rain = 0
KBO1 171447Z 00012KT 05/01 A3025 RMK A01 T00470013  RH  079%=      5-min Rain = 0
KBO1 171448Z 00014KT 05/01 A3025 RMK A01 T00480013  RH  079%=      5-min Rain = 0
KBO1 171449Z 00015KT 05/01 A3025 RMK A01 T00480014  RH  078%=      5-min Rain = 0
KBO1 171450Z 00014KT 05/01 A3025 RMK A01 T00480013  RH  078%=      5-min Rain = 0
KBO1 171451Z 01012KT 05/01 A3026 RMK A01 T00490014  RH  078%=      5-min Rain = 0
KBO1 171452Z 35013G19KT 05/02 A3026 RMK A01 T00500015  RH  078%=      5-min Rain = 0
KBO1 171453Z 00014KT 05/01 A3026 RMK A01 T00510014  RH  077%=      5-min Rain = 0
KBO1 171454Z 00012KT 05/01 A3026 RMK A01 T00520014  RH  077%=      5-min Rain = 0
KBO1 171455Z 36013KT 05/02 A3026 RMK A01 T00520015  RH  077%=      5-min Rain = 0
KBO1 171456Z 36012KT 05/02 A3026 RMK A01 T00530015  RH  076%=      5-min Rain = 0
KBO1 171457Z 36014KT 05/02 A3026 RMK A01 T00540015  RH  076%=      5-min Rain = 0
KBO1 171458Z 00012KT 05/01 A3026 RMK A01 T00540014  RH  076%=      5-min Rain = 0
KBO1 171459Z 00013KT 05/02 A3026 RMK A01 T00540015  RH  076%=      5-min Rain = 0
KBO1 171500Z 00013KT 06/01 A3026 RMK A01 T00550014  RH  075%=      5-min Rain = 0
KBO1 171501Z 00011KT 06/02 A3026 RMK A01 T00550015  RH  075%=      5-min Rain = 0
KBO1 171502Z 36012KT 06/01 A3026 RMK A01 T00550014  RH  075%=      5-min Rain = 0
KBO1 171503Z 00014KT 06/01 A3026 RMK A01 T00560014  RH  075%=      5-min Rain = 0
KBO1 171504Z 36012KT 06/01 A3026 RMK A01 T00560014  RH  074%=      5-min Rain = 0
KBO1 171505Z 00014KT 06/01 A3026 RMK A01 T00560014  RH  074%=      5-min Rain = 0
KBO1 171506Z 00014KT 06/01 A3026 RMK A01 T00570014  RH  074%=      5-min Rain = 0
KBO1 171507Z 00012KT 06/01 A3026 RMK A01 T00560013  RH  074%=      5-min Rain = 0
KBO1 171508Z 00011KT 06/01 A3026 RMK A01 T00560014  RH  074%=      5-min Rain = 0
KBO1 171509Z 36011KT 06/02 A3027 RMK A01 T00570015  RH  074%=      5-min Rain = 0
KBO1 171510Z 00014KT 06/01 A3026 RMK A01 T00580014  RH  073%=      5-min Rain = 0
KBO1 171511Z 36014KT 06/01 A3026 RMK A01 T00580013  RH  073%=      5-min Rain = 0
KBO1 171512Z 01012KT 06/01 A3026 RMK A01 T00580013  RH  073%=      5-min Rain = 0
KBO1 171513Z 00012KT 06/01 A3026 RMK A01 T00580014  RH  073%=      5-min Rain = 0
KBO1 171514Z 00014KT 06/01 A3026 RMK A01 T00600014  RH  072%=      5-min Rain = 0
KBO1 171515Z 00015KT 06/01 A3027 RMK A01 T00600013  RH  072%=      5-min Rain = 0
KBO1 171516Z 01014KT 06/01 A3027 RMK A01 T00590011  RH  072%=      5-min Rain = 0
KBO1 171517Z 01012KT 06/01 A3027 RMK A01 T00580012  RH  072%=      5-min Rain = 0
KBO1 171518Z 36012KT 06/01 A3026 RMK A01 T00590013  RH  072%=      5-min Rain = 0
KBO1 171519Z 00012KT 06/01 A3027 RMK A01 T00610014  RH  072%=      5-min Rain = 0
KBO1 171520Z 00014KT 06/01 A3026 RMK A01 T00620013  RH  071%=      5-min Rain = 0
KBO1 171521Z 00014KT 06/01 A3027 RMK A01 T00620013  RH  071%=      5-min Rain = 0
KBO1 171522Z 00012KT 06/01 A3027 RMK A01 T00620013  RH  070%=      5-min Rain = 0
KBO1 171523Z 01012KT 06/01 A3026 RMK A01 T00630014  RH  071%=      5-min Rain = 0
KBO1 171524Z 01016KT 07/01 A3026 RMK A01 T00650013  RH  069%=      5-min Rain = 0
KBO1 171525Z 00013KT 06/01 A3026 RMK A01 T00630011  RH  069%=      5-min Rain = 0
KBO1 171526Z 01011KT 06/01 A3026 RMK A01 T00620012  RH  070%=      5-min Rain = 0
KBO1 171527Z 01014KT 06/01 A3026 RMK A01 T00630012  RH  070%=      5-min Rain = 0
KBO1 171528Z 01013KT 06/01 A3026 RMK A01 T00630012  RH  070%=      5-min Rain = 0
KBO1 171529Z 00013KT 06/01 A3026 RMK A01 T00630012  RH  070%=      5-min Rain = 0
KBO1 171530Z 00015KT 06/01 A3026 RMK A01 T00630012  RH  070%=      5-min Rain = 0
KBO1 171531Z 00015KT 06/01 A3026 RMK A01 T00630012  RH  069%=      5-min Rain = 0
KBO1 171532Z 00015KT 06/01 A3026 RMK A01 T00630012  RH  069%=      5-min Rain = 0
KBO1 171533Z 01015KT 06/01 A3026 RMK A01 T00630012  RH  069%=      5-min Rain = 0
KBO1 171534Z 36015KT 06/01 A3026 RMK A01 T00640012  RH  069%=      5-min Rain = 0
KBO1 171535Z 00016KT 07/01 A3026 RMK A01 T00650012  RH  069%=      5-min Rain = 0
KBO1 171536Z 01014KT 07/01 A3026 RMK A01 T00650012  RH  069%=      5-min Rain = 0
KBO1 171537Z 01016KT 07/01 A3026 RMK A01 T00660012  RH  068%=      5-min Rain = 0
KBO1 171538Z 01014KT 07/01 A3026 RMK A01 T00660011  RH  068%=      5-min Rain = 0
KBO1 171539Z 01015KT 07/01 A3026 RMK A01 T00670012  RH  068%=      5-min Rain = 0
KBO1 171540Z 01014KT 07/01 A3025 RMK A01 T00670011  RH  067%=      5-min Rain = 0
KBO1 171541Z 02014KT 07/01 A3025 RMK A01 T00670012  RH  068%=      5-min Rain = 0
KBO1 171542Z 01015KT 07/01 A3025 RMK A01 T00690012  RH  067%=      5-min Rain = 0
KBO1 171543Z 00015KT 07/01 A3026 RMK A01 T00690011  RH  067%=      5-min Rain = 0
KBO1 171544Z 01013KT 07/01 A3026 RMK A01 T00690011  RH  067%=      5-min Rain = 0
KBO1 171545Z 01013KT 07/01 A3026 RMK A01 T00700013  RH  067%=      5-min Rain = 0
KBO1 171546Z 01014KT 07/01 A3026 RMK A01 T00720013  RH  066%=      5-min Rain = 0
KBO1 171547Z 01014KT 07/01 A3026 RMK A01 T00730012  RH  065%=      5-min Rain = 0
KBO1 171548Z 00014KT 07/01 A3025 RMK A01 T00730012  RH  065%=      5-min Rain = 0
KBO1 171549Z 01014KT 07/01 A3025 RMK A01 T00720011  RH  065%=      5-min Rain = 0
KBO1 171550Z 01012KT 07/01 A3025 RMK A01 T00720012  RH  066%=      5-min Rain = 0
KBO1 171551Z 02016KT 07/01 A3025 RMK A01 T00740012  RH  065%=      5-min Rain = 0
KBO1 171552Z 02014KT 07/01 A3025 RMK A01 T00720009  RH  064%=      5-min Rain = 0
KBO1 171553Z 02014KT 07/01 A3025 RMK A01 T00710010  RH  065%=      5-min Rain = 0
KBO1 171554Z 02011KT 07/01 A3026 RMK A01 T00710010  RH  065%=      5-min Rain = 0
KBO1 171555Z 02011KT 07/01 A3025 RMK A01 T00730011  RH  065%=      5-min Rain = 0
KBO1 171556Z 02013KT 07/01 A3026 RMK A01 T00740012  RH  065%=      5-min Rain = 0
KBO1 171557Z 02012KT 07/01 A3026 RMK A01 T00740010  RH  064%=      5-min Rain = 0
KBO1 171558Z 01013KT 07/01 A3026 RMK A01 T00730010  RH  064%=      5-min Rain = 0
KBO1 171559Z 02013KT 07/01 A3026 RMK A01 T00730010  RH  064%=      5-min Rain = 0
KBO1 171600Z 02012KT 07/01 A3026 RMK A01 T00720010  RH  064%=      5-min Rain = 0
KBO1 171601Z 02010KT 07/01 A3026 RMK A01 T00720010  RH  064%=      5-min Rain = 0
KBO1 171602Z 01011KT 07/01 A3026 RMK A01 T00720011  RH  065%=      5-min Rain = 0
KBO1 171603Z 02011KT 07/01 A3026 RMK A01 T00740010  RH  064%=      5-min Rain = 0
KBO1 171604Z 03012KT 07/01 A3026 RMK A01 T00740010  RH  064%=      5-min Rain = 0
KBO1 171605Z 01011KT 07/01 A3026 RMK A01 T00720010  RH  064%=      5-min Rain = 0
KBO1 171606Z 02013KT 07/01 A3026 RMK A01 T00720009  RH  064%=      5-min Rain = 0
KBO1 171607Z 02014KT 07/01 A3026 RMK A01 T00720009  RH  064%=      5-min Rain = 0
KBO1 171608Z 02012KT 07/01 A3026 RMK A01 T00720009  RH  064%=      5-min Rain = 0
KBO1 171609Z 01011KT 07/01 A3025 RMK A01 T00720010  RH  065%=      5-min Rain = 0
KBO1 171610Z 02013KT 07/01 A3025 RMK A01 T00730010  RH  064%=      5-min Rain = 0
KBO1 171611Z 02014KT 07/01 A3025 RMK A01 T00730009  RH  064%=      5-min Rain = 0
KBO1 171612Z 03013KT 07/01 A3025 RMK A01 T00730009  RH  064%=      5-min Rain = 0
KBO1 171613Z 02012KT 07/01 A3025 RMK A01 T00720009  RH  064%=      5-min Rain = 0
KBO1 171614Z 02013KT 07/01 A3025 RMK A01 T00730009  RH  064%=      5-min Rain = 0
KBO1 171615Z 02011KT 07/01 A3025 RMK A01 T00740010  RH  064%=      5-min Rain = 0
KBO1 171616Z 01013KT 08/01 A3025 RMK A01 T00750009  RH  063%=      5-min Rain = 0
KBO1 171617Z 01012KT 07/01 A3025 RMK A01 T00740008  RH  063%=      5-min Rain = 0
KBO1 171618Z 02013KT 07/01 A3025 RMK A01 T00740009  RH  063%=      5-min Rain = 0
KBO1 171619Z 01013KT 08/01 A3025 RMK A01 T00760010  RH  063%=      5-min Rain = 0
KBO1 171620Z 02009KT 08/01 A3025 RMK A01 T00760010  RH  063%=      5-min Rain = 0
KBO1 171621Z 01013KT 08/01 A3025 RMK A01 T00770011  RH  063%=      5-min Rain = 0
KBO1 171622Z 01013KT 08/01 A3025 RMK A01 T00770009  RH  062%=      5-min Rain = 0
KBO1 171623Z 01013KT 08/01 A3025 RMK A01 T00760009  RH  062%=      5-min Rain = 0
KBO1 171624Z 01013KT 08/01 A3025 RMK A01 T00780010  RH  062%=      5-min Rain = 0
KBO1 171625Z 01010KT 08/01 A3025 RMK A01 T00790010  RH  061%=      5-min Rain = 0
KBO1 171626Z 02010KT 08/01 A3025 RMK A01 T00800010  RH  061%=      5-min Rain = 0
KBO1 171627Z 02011KT 08/01 A3025 RMK A01 T00810010  RH  061%=      5-min Rain = 0
KBO1 171628Z 02010KT 08/01 A3025 RMK A01 T00800010  RH  061%=      5-min Rain = 0
KBO1 171629Z 02013KT 08/01 A3025 RMK A01 T00800010  RH  061%=      5-min Rain = 0
KBO1 171630Z 03011KT 08/01 A3025 RMK A01 T00800010  RH  061%=      5-min Rain = 0
KBO1 171631Z 02010KT 08/01 A3025 RMK A01 T00810010  RH  061%=      5-min Rain = 0
KBO1 171632Z 02011KT 08/01 A3025 RMK A01 T00810011  RH  061%=      5-min Rain = 0
KBO1 171633Z 03013KT 08/01 A3025 RMK A01 T00810010  RH  061%=      5-min Rain = 0
KBO1 171634Z 03010KT 08/01 A3025 RMK A01 T00790009  RH  061%=      5-min Rain = 0
KBO1 171635Z 03010KT 08/01 A3025 RMK A01 T00790010  RH  062%=      5-min Rain = 0
KBO1 171636Z 01013KT 08/01 A3025 RMK A01 T00780009  RH  062%=      5-min Rain = 0
KBO1 171637Z 01013KT 08/01 A3025 RMK A01 T00790009  RH  061%=      5-min Rain = 0
KBO1 171638Z 01010KT 08/01 A3025 RMK A01 T00790009  RH  061%=      5-min Rain = 0
KBO1 171639Z 02011KT 08/01 A3025 RMK A01 T00790009  RH  061%=      5-min Rain = 0
KBO1 171640Z 01010KT 08/01 A3025 RMK A01 T00800009  RH  061%=      5-min Rain = 0
KBO1 171641Z 00013KT 08/01 A3025 RMK A01 T00800010  RH  061%=      5-min Rain = 0
KBO1 171642Z 02010KT 08/01 A3025 RMK A01 T00820010  RH  060%=      5-min Rain = 0
KBO1 171643Z 02012KT 08/01 A3025 RMK A01 T00820010  RH  060%=      5-min Rain = 0
KBO1 171644Z 02012KT 08/01 A3025 RMK A01 T00830010  RH  060%=      5-min Rain = 0
KBO1 171645Z 02011KT 08/01 A3025 RMK A01 T00820009  RH  060%=      5-min Rain = 0
KBO1 171646Z 02009KT 08/01 A3025 RMK A01 T00810009  RH  061%=      5-min Rain = 0
KBO1 171647Z 02009KT 08/01 A3025 RMK A01 T00840012  RH  061%=      5-min Rain = 0
KBO1 171648Z 00009KT 09/01 A3025 RMK A01 T00860011  RH  059%=      5-min Rain = 0
KBO1 171649Z 36007KT 09/01 A3025 RMK A01 T00860010  RH  059%=      5-min Rain = 0
KBO1 171650Z 01009KT 09/01 A3025 RMK A01 T00870011  RH  059%=      5-min Rain = 0
KBO1 171651Z 03011KT 09/01 A3025 RMK A01 T00880011  RH  059%=      5-min Rain = 0
KBO1 171652Z 01011KT 09/01 A3025 RMK A01 T00870010  RH  058%=      5-min Rain = 0
KBO1 171653Z 00012KT 09/01 A3025 RMK A01 T00860009  RH  058%=      5-min Rain = 0
KBO1 171654Z 01012KT 09/01 A3025 RMK A01 T00850009  RH  059%=      5-min Rain = 0
KBO1 171655Z 01012KT 09/01 A3025 RMK A01 T00850009  RH  059%=      5-min Rain = 0
KBO1 171656Z 02010KT 09/01 A3025 RMK A01 T00850009  RH  059%=      5-min Rain = 0
KBO1 171657Z 02011KT 08/01 A3025 RMK A01 T00840009  RH  059%=      5-min Rain = 0
KBO1 171658Z 01012KT 09/01 A3025 RMK A01 T00850010  RH  059%=      5-min Rain = 0
KBO1 171659Z 00010KT 09/01 A3025 RMK A01 T00860010  RH  059%=      5-min Rain = 0
KBO1 171700Z 01011KT 09/01 A3025 RMK A01 T00870010  RH  059%=      5-min Rain = 0
KBO1 171701Z 01010KT 09/01 A3025 RMK A01 T00880011  RH  058%=      5-min Rain = 0
KBO1 171702Z 01009KT 09/01 A3025 RMK A01 T00890011  RH  058%=      5-min Rain = 0
KBO1 171703Z 01010KT 09/01 A3025 RMK A01 T00890011  RH  058%=      5-min Rain = 0
KBO1 171704Z 01012KT 09/01 A3025 RMK A01 T00890011  RH  058%=      5-min Rain = 0
KBO1 171705Z 01011KT 09/01 A3025 RMK A01 T00900010  RH  057%=      5-min Rain = 0
KBO1 171706Z 00008KT 09/01 A3024 RMK A01 T00880009  RH  058%=      5-min Rain = 0
KBO1 171707Z 35011KT 09/01 A3024 RMK A01 T00870009  RH  058%=      5-min Rain = 0
KBO1 171708Z 35010KT 09/01 A3024 RMK A01 T00880010  RH  058%=      5-min Rain = 0
KBO1 171709Z 01009KT 09/01 A3024 RMK A01 T00890010  RH  058%=      5-min Rain = 0
KBO1 171710Z 36007KT 09/01 A3024 RMK A01 T00890010  RH  057%=      5-min Rain = 0
KBO1 171711Z 01008KT 09/01 A3024 RMK A01 T00880010  RH  058%=      5-min Rain = 0
KBO1 171712Z 01008KT 09/01 A3024 RMK A01 T00890010  RH  058%=      5-min Rain = 0
KBO1 171713Z 01009KT 09/01 A3024 RMK A01 T00910013  RH  058%=      5-min Rain = 0
KBO1 171714Z 01010KT 09/01 A3024 RMK A01 T00940013  RH  057%=      5-min Rain = 0
KBO1 171715Z 02008KT 10/01 A3024 RMK A01 T00950012  RH  056%=      5-min Rain = 0
KBO1 171716Z 01009KT 10/01 A3024 RMK A01 T00950013  RH  056%=      5-min Rain = 0
KBO1 171717Z 35011KT 10/01 A3024 RMK A01 T00960012  RH  056%=      5-min Rain = 0
KBO1 171718Z 36008KT 10/01 A3024 RMK A01 T00950010  RH  056%=      5-min Rain = 0
KBO1 171719Z 35008KT 09/01 A3024 RMK A01 T00940010  RH  056%=      5-min Rain = 0
KBO1 171720Z 35006KT 09/01 A3024 RMK A01 T00920010  RH  056%=      5-min Rain = 0
KBO1 171721Z 35007KT 09/01 A3024 RMK A01 T00920011  RH  057%=      5-min Rain = 0
KBO1 171722Z 00007KT 09/01 A3024 RMK A01 T00940013  RH  057%=      5-min Rain = 0
KBO1 171723Z 35007KT 10/01 A3024 RMK A01 T00950012  RH  056%=      5-min Rain = 0
KBO1 171724Z 35008KT 10/01 A3024 RMK A01 T00950012  RH  056%=      5-min Rain = 0
KBO1 171725Z 36007KT 10/01 A3024 RMK A01 T00950012  RH  056%=      5-min Rain = 0
KBO1 171726Z 03006KT 10/01 A3024 RMK A01 T00970013  RH  056%=      5-min Rain = 0
KBO1 171727Z 02008KT 10/01 A3024 RMK A01 T00990013  RH  055%=      5-min Rain = 0
KBO1 171728Z 01009KT 10/01 A3024 RMK A01 T01000012  RH  054%=      5-min Rain = 0
KBO1 171729Z 36007KT 10/01 A3024 RMK A01 T00960009  RH  055%=      5-min Rain = 0
KBO1 171730Z 01007KT 10/01 A3024 RMK A01 T00950011  RH  056%=      5-min Rain = 0
KBO1 171731Z 00008KT 10/01 A3024 RMK A01 T00960012  RH  056%=      5-min Rain = 0
KBO1 171732Z 01011KT 10/01 A3024 RMK A01 T00990012  RH  055%=      5-min Rain = 0
KBO1 171733Z 00009KT 10/01 A3024 RMK A01 T00980010  RH  054%=      5-min Rain = 0
KBO1 171734Z 01008KT 10/01 A3023 RMK A01 T00970009  RH  055%=      5-min Rain = 0
KBO1 171735Z 02006KT 10/01 A3023 RMK A01 T00960009  RH  055%=      5-min Rain = 0
KBO1 171736Z 36005KT 10/01 A3023 RMK A01 T00950010  RH  055%=      5-min Rain = 0
KBO1 171737Z 35009KT 10/01 A3023 RMK A01 T00970011  RH  055%=      5-min Rain = 0
KBO1 171738Z 01008KT 10/01 A3023 RMK A01 T00990010  RH  054%=      5-min Rain = 0
KBO1 171739Z 03010KT 10/01 A3023 RMK A01 T00990010  RH  054%=      5-min Rain = 0
KBO1 171740Z 04009KT 10/01 A3023 RMK A01 T00990010  RH  054%=      5-min Rain = 0
KBO1 171741Z 04007KT 10/01 A3023 RMK A01 T00990010  RH  054%=      5-min Rain = 0
KBO1 171742Z 01010KT 10/01 A3023 RMK A01 T01000010  RH  054%=      5-min Rain = 0
KBO1 171743Z 01009KT 10/01 A3023 RMK A01 T01010010  RH  053%=      5-min Rain = 0
KBO1 171744Z 00007KT 10/01 A3023 RMK A01 T01000009  RH  053%=      5-min Rain = 0
KBO1 171745Z 00009KT 10/01 A3023 RMK A01 T01000011  RH  054%=      5-min Rain = 0
KBO1 171746Z 00005KT 10/01 A3023 RMK A01 T01000012  RH  054%=      5-min Rain = 0
KBO1 171747Z 01006KT 10/01 A3023 RMK A01 T01020013  RH  054%=      5-min Rain = 0
KBO1 171748Z 36004KT 10/01 A3023 RMK A01 T01040012  RH  053%=      5-min Rain = 0
KBO1 171749Z 34007KT 10/01 A3023 RMK A01 T01020011  RH  053%=      5-min Rain = 0
KBO1 171750Z 33005KT 10/01 A3023 RMK A01 T01020010  RH  053%=      5-min Rain = 0
KBO1 171751Z 35005KT 10/01 A3023 RMK A01 T01010010  RH  053%=      5-min Rain = 0
KBO1 171752Z 01009KT 10/01 A3023 RMK A01 T01030013  RH  054%=      5-min Rain = 0
KBO1 171753Z 02006KT 10/01 A3023 RMK A01 T01040010  RH  052%=      5-min Rain = 0
KBO1 171754Z 02007KT 10/01 A3023 RMK A01 T01030010  RH  053%=      5-min Rain = 0
KBO1 171755Z 02007KT 10/01 A3023 RMK A01 T01040008  RH  051%=      5-min Rain = 0
KBO1 171756Z 02004KT 10/01 A3023 RMK A01 T01020007  RH  052%=      5-min Rain = 0
KBO1 171757Z 01005KT 10/01 A3023 RMK A01 T01000008  RH  053%=      5-min Rain = 0
KBO1 171758Z 00010KT 10/01 A3023 RMK A01 T01010010  RH  053%=      5-min Rain = 0
KBO1 171759Z 02011KT 10/01 A3023 RMK A01 T01040009  RH  052%=      5-min Rain = 0
KBO1 171800Z 02010KT 10/01 A3023 RMK A01 T01020007  RH  052%=      5-min Rain = 0
KBO1 171801Z 03007KT 10/01 A3023 RMK A01 T01000007  RH  052%=      5-min Rain = 0
KBO1 171802Z 02008KT 10/01 A3023 RMK A01 T01020011  RH  053%=      5-min Rain = 0
KBO1 171803Z 01008KT 10/01 A3023 RMK A01 T01040009  RH  052%=      5-min Rain = 0
KBO1 171804Z 02007KT 10/01 A3023 RMK A01 T01020008  RH  052%=      5-min Rain = 0
KBO1 171805Z 01007KT 10/01 A3022 RMK A01 T01020010  RH  052%=      5-min Rain = 0
KBO1 171806Z 02009KT 10/01 A3022 RMK A01 T01030009  RH  052%=      5-min Rain = 0
KBO1 171807Z 01009KT 10/01 A3022 RMK A01 T01040008  RH  051%=      5-min Rain = 0
KBO1 171808Z 00009KT 11/01 A3022 RMK A01 T01070011  RH  052%=      5-min Rain = 0
KBO1 171809Z 02011KT 11/01 A3022 RMK A01 T01110010  RH  049%=      5-min Rain = 0
KBO1 171810Z 03009KT 11/01 A3022 RMK A01 T01120007  RH  049%=      5-min Rain = 0
KBO1 171811Z 03009KT 11/01 A3022 RMK A01 T01090006  RH  049%=      5-min Rain = 0
KBO1 171812Z 04009KT 11/01 A3022 RMK A01 T01080005  RH  049%=      5-min Rain = 0
KBO1 171813Z 04008KT 11/01 A3022 RMK A01 T01060007  RH  050%=      5-min Rain = 0
KBO1 171814Z 03007KT 11/01 A3023 RMK A01 T01070009  RH  051%=      5-min Rain = 0
KBO1 171815Z 02008KT 11/01 A3023 RMK A01 T01080009  RH  050%=      5-min Rain = 0
KBO1 171816Z 01007KT 11/01 A3022 RMK A01 T01090008  RH  050%=      5-min Rain = 0
KBO1 171817Z 00006KT 11/01 A3022 RMK A01 T01090008  RH  050%=      5-min Rain = 0
KBO1 171818Z 01009KT 11/01 A3023 RMK A01 T01090008  RH  050%=      5-min Rain = 0
KBO1 171819Z 03010KT 11/01 A3023 RMK A01 T01110009  RH  049%=      5-min Rain = 0
KBO1 171820Z 03008KT 11/01 A3023 RMK A01 T01130007  RH  048%=      5-min Rain = 0
KBO1 171821Z 04007KT 11/01 A3023 RMK A01 T01100006  RH  049%=      5-min Rain = 0
KBO1 171822Z 03009KT 11/01 A3023 RMK A01 T01100008  RH  049%=      5-min Rain = 0
KBO1 171823Z 01010KT 11/01 A3023 RMK A01 T01110008  RH  049%=      5-min Rain = 0
KBO1 171824Z 03011KT 12/01 A3023 RMK A01 T01150009  RH  048%=      5-min Rain = 0
KBO1 171825Z 01010KT 12/01 A3023 RMK A01 T01150007  RH  048%=      5-min Rain = 0
KBO1 171826Z 35009KT 11/01 A3023 RMK A01 T01130007  RH  048%=      5-min Rain = 0
KBO1 171827Z 36006KT 11/01 A3023 RMK A01 T01120008  RH  049%=      5-min Rain = 0
KBO1 171828Z 35006KT 11/01 A3023 RMK A01 T01110006  RH  048%=      5-min Rain = 0
KBO1 171829Z 03009KT 11/01 A3023 RMK A01 T01120009  RH  049%=      5-min Rain = 0
KBO1 171830Z 03010KT 12/01 A3023 RMK A01 T01150008  RH  048%=      5-min Rain = 0
KBO1 171831Z 01010KT 12/01 A3023 RMK A01 T01160007  RH  047%=      5-min Rain = 0
KBO1 171832Z 01008KT 12/01 A3023 RMK A01 T01150008  RH  048%=      5-min Rain = 0
KBO1 171833Z 36005KT 12/01 A3023 RMK A01 T01150007  RH  047%=      5-min Rain = 0
KBO1 171834Z 35006KT 11/01 A3022 RMK A01 T01130008  RH  048%=      5-min Rain = 0
KBO1 171835Z 01007KT 11/01 A3022 RMK A01 T01140007  RH  048%=      5-min Rain = 0
KBO1 171836Z 01012KT 12/01 A3022 RMK A01 T01150007  RH  047%=      5-min Rain = 0
KBO1 171837Z 01010KT 12/01 A3022 RMK A01 T01150006  RH  047%=      5-min Rain = 0
KBO1 171838Z 01010KT 12/01 A3022 RMK A01 T01160007  RH  047%=      5-min Rain = 0
KBO1 171839Z 03008KT 12/01 A3022 RMK A01 T01160006  RH  047%=      5-min Rain = 0
KBO1 171840Z 05005KT 11/01 A3022 RMK A01 T01140006  RH  048%=      5-min Rain = 0
KBO1 171841Z 03008KT 11/01 A3022 RMK A01 T01140006  RH  047%=      5-min Rain = 0
KBO1 171842Z 02006KT 11/01 A3022 RMK A01 T01130005  RH  047%=      5-min Rain = 0
KBO1 171843Z 01006KT 11/01 A3022 RMK A01 T01130006  RH  048%=      5-min Rain = 0
KBO1 171844Z 02009KT 11/01 A3022 RMK A01 T01140007  RH  048%=      5-min Rain = 0
KBO1 171845Z 03009KT 12/01 A3022 RMK A01 T01150007  RH  047%=      5-min Rain = 0
KBO1 171846Z 02008KT 12/01 A3022 RMK A01 T01160007  RH  047%=      5-min Rain = 0
KBO1 171847Z 02007KT 11/01 A3022 RMK A01 T01130006  RH  047%=      5-min Rain = 0
KBO1 171848Z 02005KT 11/01 A3022 RMK A01 T01130005  RH  047%=      5-min Rain = 0
KBO1 171849Z 03005KT 11/01 A3022 RMK A01 T01130006  RH  048%=      5-min Rain = 0
KBO1 171850Z 04006KT 11/01 A3022 RMK A01 T01140006  RH  047%=      5-min Rain = 0
KBO1 171851Z 05006KT 11/00 A3022 RMK A01 T01130004  RH  047%=      5-min Rain = 0
KBO1 171852Z 05006KT 11/00 A3022 RMK A01 T01110003  RH  047%=      5-min Rain = 0
KBO1 171853Z 06003KT 11/00 A3021 RMK A01 T01120004  RH  047%=      5-min Rain = 0
KBO1 171854Z 06006KT 11/00 A3021 RMK A01 T01120004  RH  047%=      5-min Rain = 0
KBO1 171855Z 05007KT 12/01 A3021 RMK A01 T01150007  RH  047%=      5-min Rain = 0
KBO1 171856Z 06008KT 12/01 A3021 RMK A01 T01160006  RH  047%=      5-min Rain = 0
KBO1 171857Z 06006KT 12/01 A3021 RMK A01 T01150005  RH  047%=      5-min Rain = 0
KBO1 171858Z 06004KT 11/01 A3021 RMK A01 T01130005  RH  047%=      5-min Rain = 0
KBO1 171859Z 01007KT 11/01 A3021 RMK A01 T01140008  RH  048%=      5-min Rain = 0
KBO1 171900Z 02008KT 12/01 A3021 RMK A01 T01190011  RH  047%=      5-min Rain = 0
KBO1 171901Z 02007KT 12/01 A3021 RMK A01 T01190007  RH  046%=      5-min Rain = 0
KBO1 171902Z 01004KT 12/01 A3021 RMK A01 T01160005  RH  046%=      5-min Rain = 0
KBO1 171903Z 02005KT 12/01 A3021 RMK A01 T01150006  RH  047%=      5-min Rain = 0
KBO1 171904Z 02003KT 12/01 A3021 RMK A01 T01150005  RH  047%=      5-min Rain = 0
KBO1 171905Z 04001KT 11/01 A302 RMK A01 T01140005  RH  047%=      5-min Rain = 0
KBO1 171906Z 34003KT 12/01 A302 RMK A01 T01150007  RH  048%=      5-min Rain = 0
KBO1 171907Z 35004KT 12/01 A302 RMK A01 T01180008  RH  047%=      5-min Rain = 0
KBO1 171908Z 01008KT 12/01 A302 RMK A01 T01200007  RH  046%=      5-min Rain = 0
KBO1 171909Z 35006KT 12/01 A302 RMK A01 T01200006  RH  045%=      5-min Rain = 0
KBO1 171910Z 34005KT 12/01 A302 RMK A01 T01200005  RH  045%=      5-min Rain = 0
KBO1 171911Z 35003KT 12/00 A302 RMK A01 T01190004  RH  045%=      5-min Rain = 0
KBO1 171912Z 33004KT 12/00 A302 RMK A01 T01180004  RH  045%=      5-min Rain = 0
KBO1 171913Z 35004KT 12/00 A302 RMK A01 T01160002  RH  046%=      5-min Rain = 0
KBO1 171914Z 04004KT 12/00 A302 RMK A01 T01160003  RH  046%=      5-min Rain = 0
KBO1 171915Z 06006KT 12/00 A302 RMK A01 T01160002  RH  046%=      5-min Rain = 0
KBO1 171916Z 06004KT 12/00 A302 RMK A01 T01160003  RH  046%=      5-min Rain = 0
KBO1 171917Z 07003KT 12/00 A302 RMK A01 T01170004  RH  046%=      5-min Rain = 0
KBO1 171918Z 10002KT 12/00 A302 RMK A01 T01180002  RH  045%=      5-min Rain = 0
KBO1 171919Z 08002KT 12/00 A302 RMK A01 T01180001  RH  044%=      5-min Rain = 0
KBO1 171920Z 05006KT 12/00 A302 RMK A01 T01190002  RH  045%=      5-min Rain = 0
KBO1 171921Z 08003KT 12/00 A302 RMK A01 T01180001  RH  045%=      5-min Rain = 0
KBO1 171922Z 06003KT 12/00 A302 RMK A01 T01160001  RH  045%=      5-min Rain = 0
KBO1 171923Z 11001KT 12/00 A302 RMK A01 T01150001  RH  046%=      5-min Rain = 0
KBO1 171924Z 13002KT 12/00 A3019 RMK A01 T01150002  RH  046%=      5-min Rain = 0
KBO1 171925Z 04002KT 12/00 A3019 RMK A01 T01170003  RH  046%=      5-min Rain = 0
KBO1 171926Z 05003KT 12/01 A3019 RMK A01 T01200006  RH  045%=      5-min Rain = 0
KBO1 171927Z 06002KT 12/00 A3019 RMK A01 T01200003  RH  045%=      5-min Rain = 0
KBO1 171928Z 08003KT 12/00 A3019 RMK A01 T01200004  RH  045%=      5-min Rain = 0
KBO1 171929Z 04002KT 12/00 A3019 RMK A01 T01200004  RH  045%=      5-min Rain = 0
KBO1 171930Z 01004KT 12/00 A3019 RMK A01 T01210004  RH  045%=      5-min Rain = 0
KBO1 171931Z 35006KT 12/00 A3019 RMK A01 T01210003  RH  044%=      5-min Rain = 0
KBO1 171932Z 00006KT 12/00 A3019 RMK A01 T01220003  RH  044%=      5-min Rain = 0
KBO1 171933Z 01004KT 12/00 A3019 RMK A01 T01200003  RH  044%=      5-min Rain = 0
KBO1 171934Z 36003KT 12/00 A3019 RMK A01 T01180001  RH  045%=      5-min Rain = 0
KBO1 171935Z 03001KT 12/00 A3018 RMK A01 T011600-0  RH  045%=      5-min Rain = 0
KBO1 171936Z 04002KT 12/00 A3018 RMK A01 T01150001  RH  045%=      5-min Rain = 0
KBO1 171937Z 04001KT 12/00 A3018 RMK A01 T01170002  RH  045%=      5-min Rain = 0
KBO1 171938Z 01001KT 12/00 A3018 RMK A01 T01190004  RH  045%=      5-min Rain = 0
KBO1 171939Z 34005KT 12/01 A3018 RMK A01 T01220006  RH  045%=      5-min Rain = 0
KBO1 171940Z 35005KT 12/00 A3018 RMK A01 T01230003  RH  044%=      5-min Rain = 0
KBO1 171941Z 33005KT 12/00 A3018 RMK A01 T01230004  RH  044%=      5-min Rain = 0
KBO1 171942Z 34003KT 12/00 A3018 RMK A01 T01240004  RH  044%=      5-min Rain = 0
KBO1 171943Z 33004KT 12/00 A3018 RMK A01 T01240004  RH  044%=      5-min Rain = 0
KBO1 171944Z 34002KT 12/00 A3018 RMK A01 T01240004  RH  044%=      5-min Rain = 0
KBO1 171945Z 31004KT 12/00 A3018 RMK A01 T01230003  RH  044%=      5-min Rain = 0
KBO1 171946Z 33003KT 12/00 A3018 RMK A01 T01230004  RH  044%=      5-min Rain = 0
KBO1 171947Z 32003KT 12/00 A3018 RMK A01 T01220003  RH  044%=      5-min Rain = 0
KBO1 171948Z 30005KT 12/00 A3018 RMK A01 T01210002  RH  044%=      5-min Rain = 0
KBO1 171949Z 30004KT 12/00 A3017 RMK A01 T01210003  RH  044%=      5-min Rain = 0
KBO1 171950Z 30003KT 12/00 A3017 RMK A01 T01210004  RH  045%=      5-min Rain = 0
KBO1 171951Z 31003KT 12/01 A3017 RMK A01 T01220005  RH  045%=      5-min Rain = 0
KBO1 171952Z 32003KT 12/01 A3017 RMK A01 T01240005  RH  044%=      5-min Rain = 0
KBO1 171953Z 32003KT 13/01 A3017 RMK A01 T01250005  RH  044%=      5-min Rain = 0
KBO1 171954Z 32003KT 13/00 A3017 RMK A01 T01250004  RH  043%=      5-min Rain = 0
KBO1 171955Z 33001KT 12/00 A3017 RMK A01 T01240003  RH  043%=      5-min Rain = 0
KBO1 171956Z 32000KT 12/01 A3017 RMK A01 T01230005  RH  044%=      5-min Rain = 0
KBO1 171957Z 29001KT 13/01 A3017 RMK A01 T01260006  RH  044%=      5-min Rain = 0
KBO1 171958Z 29003KT 13/01 A3017 RMK A01 T01270005  RH  043%=      5-min Rain = 0
KBO1 171959Z 30002KT 13/00 A3017 RMK A01 T01270004  RH  043%=      5-min Rain = 0
KBO1 172000Z 27002KT 13/00 A3017 RMK A01 T01250004  RH  043%=      5-min Rain = 0
KBO1 172001Z 28001KT 13/00 A3017 RMK A01 T01250004  RH  043%=      5-min Rain = 0
KBO1 172002Z 26003KT 13/00 A3017 RMK A01 T01250004  RH  043%=      5-min Rain = 0
KBO1 172003Z 25002KT 13/00 A3017 RMK A01 T01250004  RH  043%=      5-min Rain = 0
KBO1 172004Z 24001KT 13/00 A3017 RMK A01 T01250004  RH  043%=      5-min Rain = 0
KBO1 172005Z 27000KT 13/00 A3016 RMK A01 T01250004  RH  043%=      5-min Rain = 0
KBO1 172006Z 24002KT 13/00 A3016 RMK A01 T01260004  RH  043%=      5-min Rain = 0
KBO1 172007Z 22003KT 13/01 A3016 RMK A01 T01270006  RH  043%=      5-min Rain = 0
KBO1 172008Z 20002KT 13/01 A3016 RMK A01 T01280005  RH  043%=      5-min Rain = 0
KBO1 172009Z 20003KT 13/01 A3016 RMK A01 T01280005  RH  043%=      5-min Rain = 0
KBO1 172010Z 21004KT 13/01 A3016 RMK A01 T01290006  RH  043%=      5-min Rain = 0
KBO1 172011Z 05004KT 13/01 A3016 RMK A01 T01290005  RH  042%=      5-min Rain = 0
KBO1 172012Z 04003KT 13/00 A3016 RMK A01 T01300004  RH  042%=      5-min Rain = 0
KBO1 172013Z 03004KT 13/00 A3016 RMK A01 T01300003  RH  042%=      5-min Rain = 0
KBO1 172014Z 01004KT 13/00 A3016 RMK A01 T01280001  RH  042%=      5-min Rain = 0
KBO1 172015Z 03002KT 13/00 A3016 RMK A01 T01250002  RH  043%=      5-min Rain = 0
KBO1 172016Z 02001KT 13/00 A3016 RMK A01 T01250001  RH  043%=      5-min Rain = 0
KBO1 172017Z 04002KT 13/00 A3015 RMK A01 T01260002  RH  042%=      5-min Rain = 0
KBO1 172018Z 06003KT 13/00 A3015 RMK A01 T01270002  RH  042%=      5-min Rain = 0
KBO1 172019Z 07003KT 13/00 A3015 RMK A01 T01280002  RH  042%=      5-min Rain = 0
KBO1 172020Z 09004KT 13/00 A3015 RMK A01 T01270002  RH  042%=      5-min Rain = 0
KBO1 172021Z 10003KT 13/00 A3015 RMK A01 T01270002  RH  042%=      5-min Rain = 0
KBO1 172022Z 09003KT 13/00 A3015 RMK A01 T01260002  RH  042%=      5-min Rain = 0
KBO1 172023Z 13002KT 13/00 A3015 RMK A01 T01270003  RH  043%=      5-min Rain = 0
KBO1 172024Z 12003KT 13/00 A3015 RMK A01 T01290004  RH  042%=      5-min Rain = 0
KBO1 172025Z 14003KT 13/00 A3015 RMK A01 T01310003  RH  042%=      5-min Rain = 0
KBO1 172026Z 17002KT 13/00 A3015 RMK A01 T01300002  RH  041%=      5-min Rain = 0
KBO1 172027Z 17002KT 13/00 A3015 RMK A01 T01320004  RH  041%=      5-min Rain = 0
KBO1 172028Z 19001KT 13/00 A3015 RMK A01 T01320003  RH  041%=      5-min Rain = 0
KBO1 172029Z 13002KT 13/00 A3015 RMK A01 T01330003  RH  041%=      5-min Rain = 0
KBO1 172030Z 12001KT 13/00 A3015 RMK A01 T01340002  RH  040%=      5-min Rain = 0
KBO1 172031Z 10002KT 13/00 A3015 RMK A01 T01340001  RH  040%=      5-min Rain = 0
KBO1 172032Z 11003KT 13/00 A3015 RMK A01 T01340002  RH  040%=      5-min Rain = 0
KBO1 172033Z 11002KT 13/00 A3015 RMK A01 T01340003  RH  041%=      5-min Rain = 0
KBO1 172034Z 11000KT 13/00 A3015 RMK A01 T01340002  RH  040%=      5-min Rain = 0
KBO1 172035Z 11002KT 13/00 A3014 RMK A01 T01340002  RH  040%=      5-min Rain = 0
KBO1 172036Z 12002KT 13/00 A3014 RMK A01 T01340002  RH  040%=      5-min Rain = 0
KBO1 172037Z 10003KT 13/00 A3014 RMK A01 T01330001  RH  040%=      5-min Rain = 0
KBO1 172038Z 11003KT 13/00 A3015 RMK A01 T01320000  RH  040%=      5-min Rain = 0
KBO1 172039Z 11003KT 13/00 A3014 RMK A01 T01320000  RH  040%=      5-min Rain = 0
KBO1 172040Z 12003KT 13/00 A3014 RMK A01 T01320001  RH  041%=      5-min Rain = 0
KBO1 172041Z 19001KT 13/00 A3014 RMK A01 T01340002  RH  040%=      5-min Rain = 0
KBO1 172042Z 18001KT 14/00 A3014 RMK A01 T01360004  RH  041%=      5-min Rain = 0
KBO1 172043Z 19002KT 14/00 A3014 RMK A01 T01390004  RH  040%=      5-min Rain = 0
KBO1 172044Z 19002KT 14/00 A3014 RMK A01 T01390003  RH  039%=      5-min Rain = 0
KBO1 172045Z 21001KT 14/00 A3014 RMK A01 T01390003  RH  039%=      5-min Rain = 0
KBO1 172046Z 25001KT 14/00 A3014 RMK A01 T01390002  RH  039%=      5-min Rain = 0
KBO1 172047Z 27001KT 14/00 A3014 RMK A01 T01390003  RH  039%=      5-min Rain = 0
KBO1 172048Z 28001KT 14/00 A3014 RMK A01 T01410004  RH  039%=      5-min Rain = 0
KBO1 172049Z 00000KT 14/00 A3014 RMK A01 T01420003  RH  039%=      5-min Rain = 0
KBO1 172050Z 14000KT 14/00 A3014 RMK A01 T01420003  RH  039%=      5-min Rain = 0
KBO1 172051Z 27001KT 14/00 A3014 RMK A01 T01430001  RH  038%=      5-min Rain = 0
KBO1 172052Z 29003KT 14/00 A3014 RMK A01 T01440002  RH  038%=      5-min Rain = 0
KBO1 172053Z 30003KT 14/00 A3014 RMK A01 T01420002  RH  038%=      5-min Rain = 0
KBO1 172054Z 30004KT 14/00 A3014 RMK A01 T013900-0  RH  039%=      5-min Rain = 0
KBO1 172055Z 31004KT 14/M00 A3014 RMK A01 T01361003  RH  039%=      5-min Rain = 0
KBO1 172056Z 29003KT 13/M00 A3014 RMK A01 T01321003  RH  039%=      5-min Rain = 0
KBO1 172057Z 31002KT 13/M00 A3013 RMK A01 T01321003  RH  040%=      5-min Rain = 0
KBO1 172058Z 32002KT 13/M00 A3013 RMK A01 T01321002  RH  040%=      5-min Rain = 0
KBO1 172059Z 34001KT 13/M00 A3013 RMK A01 T01311004  RH  039%=      5-min Rain = 0
KBO1 172100Z 01001KT 13/M00 A3013 RMK A01 T01321003  RH  040%=      5-min Rain = 0
KBO1 172101Z 04001KT 13/M00 A3013 RMK A01 T01311003  RH  040%=      5-min Rain = 0
KBO1 172102Z 03001KT 13/M00 A3013 RMK A01 T01321003  RH  040%=      5-min Rain = 0
KBO1 172103Z 03003KT 13/00 A3013 RMK A01 T01340000  RH  040%=      5-min Rain = 0
KBO1 172104Z 01002KT 13/M00 A3013 RMK A01 T01341001  RH  039%=      5-min Rain = 0
KBO1 172105Z 30002KT 14/00 A3013 RMK A01 T013500-0  RH  040%=      5-min Rain = 0
KBO1 172106Z 27003KT 14/00 A3013 RMK A01 T01360001  RH  040%=      5-min Rain = 0
KBO1 172107Z 27002KT 14/00 A3013 RMK A01 T01380000  RH  039%=      5-min Rain = 0
KBO1 172108Z 25005KT 14/00 A3013 RMK A01 T01370001  RH  039%=      5-min Rain = 0
KBO1 172109Z 24002KT 14/M00 A3013 RMK A01 T01351001  RH  039%=      5-min Rain = 0
KBO1 172110Z 26002KT 13/M00 A3013 RMK A01 T01341002  RH  039%=      5-min Rain = 0
KBO1 172111Z 27005KT 14/00 A3013 RMK A01 T01350000  RH  040%=      5-min Rain = 0
KBO1 172112Z 24004KT 14/M00 A3013 RMK A01 T01351001  RH  039%=      5-min Rain = 0
KBO1 172113Z 25003KT 14/M00 A3013 RMK A01 T01351001  RH  039%=      5-min Rain = 0
KBO1 172114Z 28003KT 13/M00 A3013 RMK A01 T01341001  RH  040%=      5-min Rain = 0
KBO1 172115Z 25003KT 13/00 A3013 RMK A01 T01340000  RH  040%=      5-min Rain = 0
KBO1 172116Z 29004KT 14/00 A3013 RMK A01 T01350000  RH  040%=      5-min Rain = 0
KBO1 172117Z 26005KT 14/00 A3013 RMK A01 T01370001  RH  039%=      5-min Rain = 0
KBO1 172118Z 25006KT 14/00 A3013 RMK A01 T01380003  RH  039%=      5-min Rain = 0
KBO1 172119Z 25007KT 14/00 A3013 RMK A01 T01390002  RH  039%=      5-min Rain = 0
KBO1 172120Z 26005KT 14/00 A3013 RMK A01 T01370002  RH  040%=      5-min Rain = 0
KBO1 172121Z 26004KT 14/00 A3013 RMK A01 T01370002  RH  039%=      5-min Rain = 0
KBO1 172122Z 24004KT 14/00 A3013 RMK A01 T01370001  RH  039%=      5-min Rain = 0
KBO1 172123Z 24003KT 14/00 A3013 RMK A01 T01370001  RH  039%=      5-min Rain = 0
KBO1 172124Z 25003KT 14/00 A3013 RMK A01 T01360001  RH  039%=      5-min Rain = 0
KBO1 172125Z 25006KT 14/00 A3013 RMK A01 T01380002  RH  039%=      5-min Rain = 0
KBO1 172126Z 26005KT 14/00 A3013 RMK A01 T01380002  RH  040%=      5-min Rain = 0
KBO1 172127Z 21006KT 14/00 A3013 RMK A01 T01370003  RH  040%=      5-min Rain = 0
KBO1 172128Z 20006KT 14/00 A3013 RMK A01 T01380001  RH  039%=      5-min Rain = 0
KBO1 172129Z 21005KT 14/00 A3013 RMK A01 T013700-0  RH  039%=      5-min Rain = 0
KBO1 172130Z 23006KT 14/00 A3013 RMK A01 T01380002  RH  039%=      5-min Rain = 0
KBO1 172131Z 22006KT 14/00 A3013 RMK A01 T01390002  RH  039%=      5-min Rain = 0
KBO1 172132Z 22004KT 14/00 A3013 RMK A01 T01380002  RH  039%=      5-min Rain = 0
KBO1 172133Z 24006KT 14/00 A3013 RMK A01 T01380003  RH  040%=      5-min Rain = 0
KBO1 172134Z 23005KT 14/00 A3013 RMK A01 T01370002  RH  039%=      5-min Rain = 0
KBO1 172135Z 26003KT 14/00 A3013 RMK A01 T01350000  RH  040%=      5-min Rain = 0
KBO1 172136Z 24004KT 14/00 A3013 RMK A01 T01350002  RH  040%=      5-min Rain = 0
KBO1 172137Z 23004KT 14/00 A3013 RMK A01 T01360004  RH  040%=      5-min Rain = 0
KBO1 172138Z 24002KT 14/00 A3013 RMK A01 T01380002  RH  039%=      5-min Rain = 0
KBO1 172139Z 25004KT 14/00 A3013 RMK A01 T01390002  RH  039%=      5-min Rain = 0
KBO1 172140Z 21005KT 14/00 A3013 RMK A01 T01390004  RH  040%=      5-min Rain = 0
KBO1 172141Z 20004KT 14/00 A3013 RMK A01 T01390001  RH  039%=      5-min Rain = 0
KBO1 172142Z 19007KT 14/00 A3013 RMK A01 T01380000  RH  039%=      5-min Rain = 0
KBO1 172143Z 19007KT 14/00 A3013 RMK A01 T01380001  RH  039%=      5-min Rain = 0
KBO1 172144Z 18005KT 14/00 A3013 RMK A01 T013700-0  RH  039%=      5-min Rain = 0
KBO1 172145Z 17007KT 14/00 A3013 RMK A01 T01380001  RH  039%=      5-min Rain = 0
KBO1 172146Z 21005KT 14/00 A3013 RMK A01 T01390001  RH  039%=      5-min Rain = 0
KBO1 172147Z 22006KT 14/00 A3013 RMK A01 T01400003  RH  039%=      5-min Rain = 0
KBO1 172148Z 21009KT 14/00 A3013 RMK A01 T01400001  RH  038%=      5-min Rain = 0
KBO1 172149Z 20007KT 14/00 A3013 RMK A01 T01390000  RH  039%=      5-min Rain = 0
KBO1 172150Z 23009KT 14/00 A3013 RMK A01 T01380000  RH  039%=      5-min Rain = 0
KBO1 172151Z 22011KT 14/00 A3013 RMK A01 T01390001  RH  039%=      5-min Rain = 0
KBO1 172152Z 21012KT 14/00 A3013 RMK A01 T01390000  RH  039%=      5-min Rain = 0
KBO1 172153Z 22012KT 14/00 A3013 RMK A01 T013700-0  RH  039%=      5-min Rain = 0
KBO1 172154Z 22009KT 14/M00 A3013 RMK A01 T01361001  RH  039%=      5-min Rain = 0
KBO1 172155Z 22008KT 14/M00 A3013 RMK A01 T01361001  RH  039%=      5-min Rain = 0
KBO1 172156Z 21005KT 14/M00 A3013 RMK A01 T01351001  RH  039%=      5-min Rain = 0
KBO1 172157Z 20005KT 14/M00 A3013 RMK A01 T01351001  RH  039%=      5-min Rain = 0
KBO1 172158Z 22004KT 14/00 A3013 RMK A01 T01370001  RH  039%=      5-min Rain = 0
KBO1 172159Z 24004KT 14/00 A3013 RMK A01 T01390002  RH  039%=      5-min Rain = 0
KBO1 172200Z 24004KT 14/00 A3013 RMK A01 T01390001  RH  039%=      5-min Rain = 0
KBO1 172201Z 25006KT 14/00 A3013 RMK A01 T01400002  RH  039%=      5-min Rain = 0
KBO1 172202Z 25008G13KT 14/00 A3013 RMK A01 T01390001  RH  039%=      5-min Rain = 0
KBO1 172203Z 24011KT 14/00 A3013 RMK A01 T01390001  RH  039%=      5-min Rain = 0
KBO1 172204Z 24009KT 14/M00 A3013 RMK A01 T01381001  RH  039%=      5-min Rain = 0
KBO1 172205Z 23005KT 14/M00 A3013 RMK A01 T01351002  RH  039%=      5-min Rain = 0
KBO1 172206Z 24005KT 14/M00 A3013 RMK A01 T01351001  RH  039%=      5-min Rain = 0
KBO1 172207Z 26007KT 14/M00 A3013 RMK A01 T01361001  RH  039%=      5-min Rain = 0
KBO1 172208Z 26006KT 14/M00 A3013 RMK A01 T01361001  RH  039%=      5-min Rain = 0
KBO1 172209Z 26005KT 14/M00 A3013 RMK A01 T01361001  RH  039%=      5-min Rain = 0
KBO1 172210Z 25005KT 14/M00 A3013 RMK A01 T01361001  RH  039%=      5-min Rain = 0
KBO1 172211Z 25005KT 14/00 A3013 RMK A01 T01360000  RH  039%=      5-min Rain = 0
KBO1 172212Z 23004KT 14/00 A3013 RMK A01 T013700-0  RH  039%=      5-min Rain = 0
KBO1 172213Z 24005KT 14/M00 A3013 RMK A01 T01371001  RH  039%=      5-min Rain = 0
KBO1 172214Z 23005KT 14/00 A3013 RMK A01 T01370000  RH  039%=      5-min Rain = 0
KBO1 172215Z 22007KT 14/00 A3013 RMK A01 T01370002  RH  039%=      5-min Rain = 0
KBO1 172216Z 23008KT 14/00 A3013 RMK A01 T01380001  RH  039%=      5-min Rain = 0
KBO1 172217Z 23010KT 14/M00 A3013 RMK A01 T01381001  RH  039%=      5-min Rain = 0
KBO1 172218Z 24010KT 14/M00 A3013 RMK A01 T01371001  RH  039%=      5-min Rain = 0
KBO1 172219Z 24010KT 14/00 A3013 RMK A01 T01370000  RH  039%=      5-min Rain = 0
KBO1 172220Z 25010KT 14/M00 A3013 RMK A01 T01371001  RH  039%=      5-min Rain = 0
KBO1 172221Z 24007KT 14/M00 A3013 RMK A01 T01361003  RH  039%=      5-min Rain = 0
KBO1 172222Z 25006KT 14/M00 A3013 RMK A01 T01351002  RH  039%=      5-min Rain = 0
KBO1 172223Z 24009KT 14/00 A3013 RMK A01 T01360000  RH  039%=      5-min Rain = 0
KBO1 172224Z 25010KT 14/M00 A3013 RMK A01 T01371001  RH  039%=      5-min Rain = 0
KBO1 172225Z 25010KT 14/M00 A3013 RMK A01 T01361002  RH  039%=      5-min Rain = 0
KBO1 172226Z 25011KT 14/M00 A3013 RMK A01 T01361002  RH  039%=      5-min Rain = 0
KBO1 172227Z 25010KT 14/M00 A3013 RMK A01 T01351003  RH  039%=      5-min Rain = 0
KBO1 172228Z 25011KT 14/M00 A3013 RMK A01 T01351001  RH  039%=      5-min Rain = 0
KBO1 172229Z 25010KT 13/M00 A3013 RMK A01 T01341001  RH  039%=      5-min Rain = 0
KBO1 172230Z 25010KT 13/M00 A3013 RMK A01 T01341002  RH  039%=      5-min Rain = 0
KBO1 172231Z 26009KT 13/M00 A3013 RMK A01 T01341002  RH  039%=      5-min Rain = 0
KBO1 172232Z 25008KT 13/M00 A3013 RMK A01 T01341001  RH  040%=      5-min Rain = 0
KBO1 172233Z 26007KT 13/00 A3013 RMK A01 T013400-0  RH  040%=      5-min Rain = 0
KBO1 172234Z 25011KT 13/00 A3013 RMK A01 T013400-0  RH  040%=      5-min Rain = 0
KBO1 172235Z 25010KT 13/M00 A3013 RMK A01 T01341001  RH  039%=      5-min Rain = 0
KBO1 172236Z 26009KT 13/M00 A3013 RMK A01 T01331002  RH  039%=      5-min Rain = 0
KBO1 172237Z 26007KT 13/00 A3013 RMK A01 T013300-0  RH  040%=      5-min Rain = 0
KBO1 172238Z 27009KT 13/M00 A3013 RMK A01 T01331001  RH  040%=      5-min Rain = 0
KBO1 172239Z 26008KT 13/M00 A3013 RMK A01 T01331001  RH  040%=      5-min Rain = 0
KBO1 172240Z 25006KT 13/M00 A3013 RMK A01 T01331001  RH  040%=      5-min Rain = 0
KBO1 172241Z 25006KT 13/00 A3013 RMK A01 T013300-0  RH  040%=      5-min Rain = 0
KBO1 172242Z 26006KT 13/00 A3013 RMK A01 T013300-0  RH  040%=      5-min Rain = 0
KBO1 172243Z 27006KT 13/M00 A3013 RMK A01 T01321001  RH  040%=      5-min Rain = 0
KBO1 172244Z 26006KT 13/M00 A3013 RMK A01 T01331001  RH  040%=      5-min Rain = 0
KBO1 172245Z 26006KT 13/M00 A3013 RMK A01 T01321001  RH  040%=      5-min Rain = 0
KBO1 172246Z 25006KT 13/00 A3013 RMK A01 T013300-0  RH  040%=      5-min Rain = 0
KBO1 172247Z 24007KT 13/00 A3013 RMK A01 T01330000  RH  040%=      5-min Rain = 0
KBO1 172248Z 24009KT 13/00 A3013 RMK A01 T01330001  RH  040%=      5-min Rain = 0
KBO1 172249Z 24007KT 13/00 A3013 RMK A01 T01330000  RH  040%=      5-min Rain = 0
KBO1 172250Z 23007KT 13/00 A3013 RMK A01 T01320001  RH  041%=      5-min Rain = 0
KBO1 172251Z 23006KT 13/00 A3013 RMK A01 T01320000  RH  040%=      5-min Rain = 0
KBO1 172252Z 23006KT 13/M00 A3013 RMK A01 T01321001  RH  040%=      5-min Rain = 0
KBO1 172253Z 23005KT 13/00 A3013 RMK A01 T01320000  RH  040%=      5-min Rain = 0
KBO1 172254Z 23007KT 13/00 A3013 RMK A01 T01320000  RH  040%=      5-min Rain = 0
KBO1 172255Z 23006KT 13/00 A3013 RMK A01 T013200-0  RH  040%=      5-min Rain = 0
KBO1 172256Z 23006KT 13/00 A3013 RMK A01 T01320000  RH  040%=      5-min Rain = 0
KBO1 172257Z 21006KT 13/00 A3013 RMK A01 T013100-0  RH  040%=      5-min Rain = 0
KBO1 172258Z 22006KT 13/00 A3013 RMK A01 T013100-0  RH  040%=      5-min Rain = 0
KBO1 172259Z 22004KT 13/M00 A3013 RMK A01 T01311001  RH  040%=      5-min Rain = 0
KBO1 172300Z 20005KT 13/00 A3013 RMK A01 T013100-0  RH  041%=      5-min Rain = 0
KBO1 172301Z 21006KT 13/00 A3013 RMK A01 T01310000  RH  041%=      5-min Rain = 0
KBO1 172302Z 20006KT 13/00 A3013 RMK A01 T013100-0  RH  041%=      5-min Rain = 0
KBO1 172303Z 20005KT 13/M00 A3013 RMK A01 T01301001  RH  041%=      5-min Rain = 0
KBO1 172304Z 21005KT 13/00 A3013 RMK A01 T013000-0  RH  041%=      5-min Rain = 0
KBO1 172305Z 20004KT 13/00 A3013 RMK A01 T01300000  RH  041%=      5-min Rain = 0
KBO1 172306Z 21005KT 13/00 A3013 RMK A01 T01300000  RH  041%=      5-min Rain = 0
KBO1 172307Z 22005KT 13/00 A3013 RMK A01 T01300001  RH  041%=      5-min Rain = 0
KBO1 172308Z 22004KT 13/00 A3013 RMK A01 T01300001  RH  041%=      5-min Rain = 0
KBO1 172309Z 21004KT 13/00 A3013 RMK A01 T01290001  RH  041%=      5-min Rain = 0
KBO1 172310Z 21004KT 13/00 A3013 RMK A01 T01290001  RH  041%=      5-min Rain = 0
KBO1 172311Z 20004KT 13/00 A3013 RMK A01 T01290000  RH  041%=      5-min Rain = 0
KBO1 172312Z 20004KT 13/00 A3013 RMK A01 T01280000  RH  041%=      5-min Rain = 0
KBO1 172313Z 20004KT 13/00 A3013 RMK A01 T01280000  RH  041%=      5-min Rain = 0
KBO1 172314Z 20004KT 13/00 A3013 RMK A01 T01270000  RH  042%=      5-min Rain = 0
KBO1 172315Z 19005KT 13/00 A3013 RMK A01 T01260000  RH  042%=      5-min Rain = 0
KBO1 172316Z 19005KT 13/00 A3013 RMK A01 T01260000  RH  042%=      5-min Rain = 0
KBO1 172317Z 20003KT 13/00 A3013 RMK A01 T012500-0  RH  042%=      5-min Rain = 0
KBO1 172318Z 20003KT 12/00 A3013 RMK A01 T012400-0  RH  042%=      5-min Rain = 0
KBO1 172319Z 19004KT 12/00 A3013 RMK A01 T012400-0  RH  042%=      5-min Rain = 0
KBO1 172320Z 20005KT 12/M00 A3013 RMK A01 T01241001  RH  042%=      5-min Rain = 0
KBO1 172321Z 20003KT 12/M00 A3012 RMK A01 T01241002  RH  042%=      5-min Rain = 0
KBO1 172322Z 19004KT 13/M00 A3012 RMK A01 T01251002  RH  042%=      5-min Rain = 0
KBO1 172323Z 19004KT 13/M00 A3012 RMK A01 T01251002  RH  042%=      5-min Rain = 0
KBO1 172324Z 18004KT 12/M00 A3012 RMK A01 T01241002  RH  042%=      5-min Rain = 0
KBO1 172325Z 19005KT 12/M00 A3012 RMK A01 T01221002  RH  042%=      5-min Rain = 0
KBO1 172326Z 19005KT 12/M00 A3012 RMK A01 T01201003  RH  043%=      5-min Rain = 0
KBO1 172327Z 19005KT 12/M00 A3012 RMK A01 T01181004  RH  043%=      5-min Rain = 0
KBO1 172328Z 19005KT 12/M00 A3012 RMK A01 T01161004  RH  043%=      5-min Rain = 0
KBO1 172329Z 19004KT 11/M00 A3012 RMK A01 T01141004  RH  044%=      5-min Rain = 0
KBO1 172330Z 18004KT 11/M01 A3012 RMK A01 T01131005  RH  044%=      5-min Rain = 0
KBO1 172331Z 18004KT 11/M01 A3012 RMK A01 T01111005  RH  045%=      5-min Rain = 0
KBO1 172332Z 18004KT 11/M01 A3012 RMK A01 T01091005  RH  045%=      5-min Rain = 0
KBO1 172333Z 18004KT 11/M01 A3012 RMK A01 T01081005  RH  045%=      5-min Rain = 0
KBO1 172334Z 17005KT 11/M01 A3012 RMK A01 T01071006  RH  046%=      5-min Rain = 0
KBO1 172335Z 17005KT 11/M01 A3012 RMK A01 T01061005  RH  046%=      5-min Rain = 0
KBO1 172336Z 17005KT 11/M01 A3012 RMK A01 T01051006  RH  046%=      5-min Rain = 0
KBO1 172337Z 17005KT 11/M01 A3012 RMK A01 T01051006  RH  046%=      5-min Rain = 0
KBO1 172338Z 17005KT 10/M01 A3012 RMK A01 T01041006  RH  046%=      5-min Rain = 0
KBO1 172339Z 17005KT 10/M01 A3012 RMK A01 T01031007  RH  047%=      5-min Rain = 0
KBO1 172340Z 17005KT 10/M01 A3012 RMK A01 T01011007  RH  047%=      5-min Rain = 0
KBO1 172341Z 18004KT 10/M01 A3012 RMK A01 T01001007  RH  047%=      5-min Rain = 0
KBO1 172342Z 18004KT 10/M01 A3012 RMK A01 T01001006  RH  048%=      5-min Rain = 0
KBO1 172343Z 17004KT 10/M01 A3012 RMK A01 T01001006  RH  048%=      5-min Rain = 0
KBO1 172344Z 17005KT 10/M01 A3012 RMK A01 T01001006  RH  048%=      5-min Rain = 0
KBO1 172345Z 17005KT 10/M01 A3012 RMK A01 T00991007  RH  048%=      5-min Rain = 0
KBO1 172346Z 17005KT 10/M01 A3012 RMK A01 T00981007  RH  048%=      5-min Rain = 0
KBO1 172347Z 17005KT 10/M01 A3012 RMK A01 T00971007  RH  048%=      5-min Rain = 0
KBO1 172348Z 17005KT 10/M01 A3012 RMK A01 T00971006  RH  049%=      5-min Rain = 0
KBO1 172349Z 17005KT 10/M01 A3012 RMK A01 T00981006  RH  048%=      5-min Rain = 0
KBO1 172350Z 17005KT 10/M01 A3012 RMK A01 T00981007  RH  048%=      5-min Rain = 0
KBO1 172351Z 17005KT 10/M01 A3012 RMK A01 T00981006  RH  048%=      5-min Rain = 0
KBO1 172352Z 18005KT 10/M01 A3012 RMK A01 T00971006  RH  048%=      5-min Rain = 0
KBO1 172353Z 18006KT 10/M01 A3012 RMK A01 T00971006  RH  049%=      5-min Rain = 0
KBO1 172354Z 18006KT 10/M01 A3012 RMK A01 T00961007  RH  049%=      5-min Rain = 0
KBO1 172355Z 17006KT 09/M01 A3012 RMK A01 T00941007  RH  049%=      5-min Rain = 0
KBO1 172356Z 17007KT 09/M01 A3012 RMK A01 T00931008  RH  049%=      5-min Rain = 0
KBO1 172357Z 17007KT 09/M01 A3012 RMK A01 T00911009  RH  050%=      5-min Rain = 0
KBO1 172358Z 17007KT 09/M01 A3012 RMK A01 T00881010  RH  050%=      5-min Rain = 0
KBO1 172359Z 18006KT 09/M01 A3012 RMK A01 T00861011  RH  051%=      5-min Rain = 0
KBO1 180000Z 18006KT 08/M01 A3012 RMK A01 T00831012  RH  051%=      5-min Rain = 0
KBO1 180001Z 18007KT 08/M01 A3012 RMK A01 T00801012  RH  052%=      5-min Rain = 0
KBO1 180002Z 18007KT 08/M01 A3012 RMK A01 T00791011  RH  053%=      5-min Rain = 0
KBO1 180003Z 18007KT 08/M01 A3012 RMK A01 T00781011  RH  053%=      5-min Rain = 0
KBO1 180004Z 18007KT 08/M01 A3012 RMK A01 T00771012  RH  053%=      5-min Rain = 0
KBO1 180005Z 18007KT 08/M01 A3012 RMK A01 T00761012  RH  054%=      5-min Rain = 0
KBO1 180006Z 18008KT 08/M01 A3012 RMK A01 T00751012  RH  054%=      5-min Rain = 0
KBO1 180007Z 18008KT 07/M01 A3012 RMK A01 T00741012  RH  055%=      5-min Rain = 0
KBO1 180008Z 18008KT 07/M01 A3012 RMK A01 T00731012  RH  055%=      5-min Rain = 0
KBO1 180009Z 18009KT 07/M01 A3012 RMK A01 T00721011  RH  056%=      5-min Rain = 0
KBO1 180010Z 18009KT 07/M01 A3012 RMK A01 T00721010  RH  056%=      5-min Rain = 0
KBO1 180011Z 18010KT 07/M01 A3012 RMK A01 T00721011  RH  056%=      5-min Rain = 0
KBO1 180012Z 18010KT 07/M01 A3012 RMK A01 T00701012  RH  056%=      5-min Rain = 0
KBO1 180013Z 18010KT 07/M01 A3012 RMK A01 T00691012  RH  056%=      5-min Rain = 0
KBO1 180014Z 18009KT 07/M01 A3012 RMK A01 T00681011  RH  057%=      5-min Rain = 0
KBO1 180015Z 18009KT 07/M01 A3012 RMK A01 T00691009  RH  057%=      5-min Rain = 0
KBO1 180016Z 18009KT 07/M01 A3012 RMK A01 T00701009  RH  057%=      5-min Rain = 0
KBO1 180017Z 18009KT 07/M01 A3012 RMK A01 T00711009  RH  057%=      5-min Rain = 0
KBO1 180018Z 18009KT 07/M01 A3012 RMK A01 T00701009  RH  057%=      5-min Rain = 0
KBO1 180019Z 18009KT 07/M01 A3012 RMK A01 T00691010  RH  057%=      5-min Rain = 0
KBO1 180020Z 18008KT 07/M01 A3012 RMK A01 T00681010  RH  057%=      5-min Rain = 0
KBO1 180021Z 18008KT 07/M01 A3013 RMK A01 T00681010  RH  058%=      5-min Rain = 0
KBO1 180022Z 18008KT 07/M01 A3013 RMK A01 T00671010  RH  058%=      5-min Rain = 0
KBO1 180023Z 18008KT 07/M01 A3013 RMK A01 T00671010  RH  058%=      5-min Rain = 0
KBO1 180024Z 18009KT 07/M01 A3013 RMK A01 T00671009  RH  058%=      5-min Rain = 0
KBO1 180025Z 18009KT 07/M01 A3013 RMK A01 T00671009  RH  058%=      5-min Rain = 0
KBO1 180026Z 18009KT 07/M01 A3013 RMK A01 T00671010  RH  058%=      5-min Rain = 0
KBO1 180027Z 18008KT 07/M01 A3013 RMK A01 T00671010  RH  058%=      5-min Rain = 0
KBO1 180028Z 17008KT 07/M01 A3012 RMK A01 T00671010  RH  058%=      5-min Rain = 0
KBO1 180029Z 17008KT 07/M01 A3012 RMK A01 T00661011  RH  058%=      5-min Rain = 0
KBO1 180030Z 17009KT 07/M01 A3012 RMK A01 T00651011  RH  058%=      5-min Rain = 0
KBO1 180031Z 17009KT 06/M01 A3012 RMK A01 T00641012  RH  058%=      5-min Rain = 0
KBO1 180032Z 17009KT 06/M01 A3012 RMK A01 T00631012  RH  059%=      5-min Rain = 0
KBO1 180033Z 18009KT 06/M01 A3012 RMK A01 T00621012  RH  059%=      5-min Rain = 0
KBO1 180034Z 18010KT 06/M01 A3012 RMK A01 T00611013  RH  059%=      5-min Rain = 0
KBO1 180035Z 18010KT 06/M01 A3012 RMK A01 T00591014  RH  059%=      5-min Rain = 0
KBO1 180036Z 17010KT 06/M01 A3012 RMK A01 T00581013  RH  060%=      5-min Rain = 0
KBO1 180037Z 17009KT 06/M01 A3012 RMK A01 T00581012  RH  061%=      5-min Rain = 0
KBO1 180038Z 17009KT 06/M01 A3013 RMK A01 T00591011  RH  061%=      5-min Rain = 0
KBO1 180039Z 18008KT 06/M01 A3013 RMK A01 T00591011  RH  061%=      5-min Rain = 0
KBO1 180040Z 18009KT 06/M01 A3013 RMK A01 T00591011  RH  061%=      5-min Rain = 0
KBO1 180041Z 18009KT 06/M01 A3013 RMK A01 T00581012  RH  061%=      5-min Rain = 0
KBO1 180042Z 18009KT 06/M01 A3013 RMK A01 T00571012  RH  061%=      5-min Rain = 0
KBO1 180043Z 18009KT 06/M01 A3013 RMK A01 T00561013  RH  061%=      5-min Rain = 0
KBO1 180044Z 18008KT 06/M01 A3013 RMK A01 T00561013  RH  061%=      5-min Rain = 0
KBO1 180045Z 17008KT 06/M01 A3013 RMK A01 T00561012  RH  062%=      5-min Rain = 0
KBO1 180046Z 18008KT 06/M01 A3013 RMK A01 T00561012  RH  062%=      5-min Rain = 0
KBO1 180047Z 18008KT 06/M01 A3013 RMK A01 T00561013  RH  061%=      5-min Rain = 0
KBO1 180048Z 18008KT 06/M01 A3013 RMK A01 T00551013  RH  061%=      5-min Rain = 0
KBO1 180049Z 18009KT 05/M01 A3013 RMK A01 T00541014  RH  062%=      5-min Rain = 0
KBO1 180050Z 18009KT 05/M01 A3013 RMK A01 T00531014  RH  062%=      5-min Rain = 0
KBO1 180051Z 18009KT 05/M01 A3013 RMK A01 T00521014  RH  062%=      5-min Rain = 0
KBO1 180052Z 17010KT 05/M01 A3013 RMK A01 T00521013  RH  063%=      5-min Rain = 0
KBO1 180053Z 17010KT 05/M01 A3013 RMK A01 T00521013  RH  063%=      5-min Rain = 0
KBO1 180054Z 18009KT 05/M01 A3013 RMK A01 T00521013  RH  063%=      5-min Rain = 0
KBO1 180055Z 18010KT 05/M01 A3013 RMK A01 T00521013  RH  063%=      5-min Rain = 0
KBO1 180056Z 18009KT 05/M01 A3013 RMK A01 T00521012  RH  063%=      5-min Rain = 0
KBO1 180057Z 18009KT 05/M01 A3013 RMK A01 T00521012  RH  063%=      5-min Rain = 0
KBO1 180058Z 18009KT 05/M01 A3013 RMK A01 T00511013  RH  063%=      5-min Rain = 0
KBO1 180059Z 18009KT 05/M01 A3013 RMK A01 T00501013  RH  064%=      5-min Rain = 0
KBO1 180100Z 18009KT 05/M01 A3013 RMK A01 T00501013  RH  064%=      5-min Rain = 0
KBO1 180101Z 18010KT 05/M01 A3013 RMK A01 T00481014  RH  064%=      5-min Rain = 0
KBO1 180102Z 18010KT 05/M01 A3013 RMK A01 T00481013  RH  065%=      5-min Rain = 0
KBO1 180103Z 18011KT 05/M01 A3013 RMK A01 T00481013  RH  065%=      5-min Rain = 0
KBO1 180104Z 18011KT 05/M01 A3013 RMK A01 T00471013  RH  065%=      5-min Rain = 0
KBO1 180105Z 17011KT 05/M01 A3013 RMK A01 T00481012  RH  065%=      5-min Rain = 0
KBO1 180106Z 18010KT 05/M01 A3013 RMK A01 T00481012  RH  065%=      5-min Rain = 0
KBO1 180107Z 17010KT 05/M01 A3013 RMK A01 T00491011  RH  065%=      5-min Rain = 0
KBO1 180108Z 17010KT 05/M01 A3012 RMK A01 T00491011  RH  065%=      5-min Rain = 0
KBO1 180109Z 17010KT 05/M01 A3012 RMK A01 T00491011  RH  065%=      5-min Rain = 0
KBO1 180110Z 17010KT 05/M01 A3012 RMK A01 T00491011  RH  065%=      5-min Rain = 0
KBO1 180111Z 17009KT 05/M01 A3012 RMK A01 T00491011  RH  065%=      5-min Rain = 0
KBO1 180112Z 17009KT 05/M01 A3012 RMK A01 T00491011  RH  065%=      5-min Rain = 0
KBO1 180113Z 17010KT 05/M01 A3012 RMK A01 T00501010  RH  065%=      5-min Rain = 0
KBO1 180114Z 17009KT 05/M01 A3012 RMK A01 T00491010  RH  065%=      5-min Rain = 0
KBO1 180115Z 17008KT 05/M01 A3012 RMK A01 T00491010  RH  066%=      5-min Rain = 0
KBO1 180116Z 17008KT 05/M01 A3012 RMK A01 T00481010  RH  066%=      5-min Rain = 0
KBO1 180117Z 17008KT 05/M01 A3012 RMK A01 T00471011  RH  066%=      5-min Rain = 0
KBO1 180118Z 17008KT 05/M01 A3012 RMK A01 T00471010  RH  066%=      5-min Rain = 0
KBO1 180119Z 17008KT 05/M01 A3012 RMK A01 T00471010  RH  067%=      5-min Rain = 0
KBO1 180120Z 17008KT 05/M01 A3013 RMK A01 T00471010  RH  067%=      5-min Rain = 0
KBO1 180121Z 18008KT 05/M01 A3013 RMK A01 T00471010  RH  067%=      5-min Rain = 0
KBO1 180122Z 17008KT 05/M01 A3013 RMK A01 T00461010  RH  067%=      5-min Rain = 0
KBO1 180123Z 17008KT 05/M01 A3013 RMK A01 T00461011  RH  067%=      5-min Rain = 0
KBO1 180124Z 18009KT 05/M01 A3013 RMK A01 T00451011  RH  067%=      5-min Rain = 0
KBO1 180125Z 18009KT 05/M01 A3013 RMK A01 T00451011  RH  067%=      5-min Rain = 0
KBO1 180126Z 18009KT 05/M01 A3013 RMK A01 T00451011  RH  067%=      5-min Rain = 0
KBO1 180127Z 18009KT 04/M01 A3013 RMK A01 T00441012  RH  067%=      5-min Rain = 0
KBO1 180128Z 18009KT 04/M01 A3013 RMK A01 T00431012  RH  067%=      5-min Rain = 0
KBO1 180129Z 18010KT 04/M01 A3013 RMK A01 T00421012  RH  068%=      5-min Rain = 0
KBO1 180130Z 18009KT 04/M01 A3013 RMK A01 T00421012  RH  068%=      5-min Rain = 0
KBO1 180131Z 18010KT 04/M01 A3013 RMK A01 T00411012  RH  068%=      5-min Rain = 0
KBO1 180132Z 18010KT 04/M01 A3012 RMK A01 T00411011  RH  069%=      5-min Rain = 0
KBO1 180133Z 18010KT 04/M01 A3012 RMK A01 T00421011  RH  069%=      5-min Rain = 0
KBO1 180134Z 18010KT 04/M01 A3012 RMK A01 T00421011  RH  068%=      5-min Rain = 0
KBO1 180135Z 18010KT 04/M01 A3012 RMK A01 T00431010  RH  068%=      5-min Rain = 0
KBO1 180136Z 18009KT 04/M01 A3012 RMK A01 T00431010  RH  069%=      5-min Rain = 0
KBO1 180137Z 18009KT 04/M01 A3013 RMK A01 T00431010  RH  068%=      5-min Rain = 0
KBO1 180138Z 18009KT 04/M01 A3012 RMK A01 T00431010  RH  069%=      5-min Rain = 0
KBO1 180139Z 18009KT 04/M01 A3012 RMK A01 T00421010  RH  069%=      5-min Rain = 0
KBO1 180140Z 18009KT 04/M01 A3012 RMK A01 T00411011  RH  069%=      5-min Rain = 0
KBO1 180141Z 18009KT 04/M01 A3012 RMK A01 T00411010  RH  069%=      5-min Rain = 0
KBO1 180142Z 18009KT 04/M01 A3012 RMK A01 T00411011  RH  069%=      5-min Rain = 0
KBO1 180143Z 18009KT 04/M01 A3012 RMK A01 T00411011  RH  069%=      5-min Rain = 0
KBO1 180144Z 18010KT 04/M01 A3012 RMK A01 T00401011  RH  069%=      5-min Rain = 0
KBO1 180145Z 18010KT 04/M01 A3012 RMK A01 T00401011  RH  069%=      5-min Rain = 0
KBO1 180146Z 18009KT 04/M01 A3012 RMK A01 T00401011  RH  070%=      5-min Rain = 0
KBO1 180147Z 18010KT 04/M01 A3013 RMK A01 T00401010  RH  070%=      5-min Rain = 0
KBO1 180148Z 18010KT 04/M01 A3013 RMK A01 T00411010  RH  069%=      5-min Rain = 0
KBO1 180149Z 19010KT 04/M01 A3013 RMK A01 T00411010  RH  069%=      5-min Rain = 0
KBO1 180150Z 19009KT 04/M01 A3013 RMK A01 T00411010  RH  069%=      5-min Rain = 0
KBO1 180151Z 19009KT 04/M01 A3013 RMK A01 T00411010  RH  069%=      5-min Rain = 0
KBO1 180152Z 19009KT 04/M01 A3013 RMK A01 T00421009  RH  069%=      5-min Rain = 0
KBO1 180153Z 19009KT 04/M01 A3013 RMK A01 T00421009  RH  069%=      5-min Rain = 0
KBO1 180154Z 19009KT 04/M01 A3013 RMK A01 T00431009  RH  069%=      5-min Rain = 0
KBO1 180155Z 19009KT 04/M01 A3013 RMK A01 T00431008  RH  069%=      5-min Rain = 0
KBO1 180156Z 19009KT 04/M01 A3013 RMK A01 T00431008  RH  069%=      5-min Rain = 0
KBO1 180157Z 19009KT 04/M01 A3013 RMK A01 T00431008  RH  069%=      5-min Rain = 0
KBO1 180158Z 19009KT 04/M01 A3013 RMK A01 T00441008  RH  069%=      5-min Rain = 0
KBO1 180159Z 19008KT 04/M01 A3013 RMK A01 T00431008  RH  069%=      5-min Rain = 0
KBO1 180200Z 19009KT 04/M01 A3013 RMK A01 T00421009  RH  069%=      5-min Rain = 0
KBO1 180201Z 19008KT 04/M01 A3013 RMK A01 T00411009  RH  070%=      5-min Rain = 0
KBO1 180202Z 20008KT 04/M01 A3013 RMK A01 T00401009  RH  070%=      5-min Rain = 0
KBO1 180203Z 20008KT 04/M01 A3014 RMK A01 T00401009  RH  071%=      5-min Rain = 0
KBO1 180204Z 20007KT 04/M01 A3014 RMK A01 T00381010  RH  071%=      5-min Rain = 0
KBO1 180205Z 20007KT 04/M01 A3014 RMK A01 T00361011  RH  071%=      5-min Rain = 0
KBO1 180206Z 20007KT 03/M01 A3013 RMK A01 T00341012  RH  072%=      5-min Rain = 0
KBO1 180207Z 20007KT 03/M01 A3013 RMK A01 T00321014  RH  072%=      5-min Rain = 0
KBO1 180208Z 20007KT 03/M01 A3013 RMK A01 T00301014  RH  072%=      5-min Rain = 0
KBO1 180209Z 20008KT 03/M02 A3013 RMK A01 T00291015  RH  073%=      5-min Rain = 0
KBO1 180210Z 20008KT 03/M02 A3013 RMK A01 T00271015  RH  073%=      5-min Rain = 0
KBO1 180211Z 20008KT 03/M02 A3013 RMK A01 T00271015  RH  074%=      5-min Rain = 0
KBO1 180212Z 20008KT 03/M02 A3013 RMK A01 T00261015  RH  074%=      5-min Rain = 0
KBO1 180213Z 20008KT 03/M02 A3013 RMK A01 T00251015  RH  075%=      5-min Rain = 0
KBO1 180214Z 20008KT 03/M01 A3013 RMK A01 T00261014  RH  075%=      5-min Rain = 0
KBO1 180215Z 20008KT 03/M01 A3013 RMK A01 T00261014  RH  075%=      5-min Rain = 0
KBO1 180216Z 20008KT 03/M01 A3013 RMK A01 T00251014  RH  075%=      5-min Rain = 0
KBO1 180217Z 20008KT 03/M01 A3013 RMK A01 T00261013  RH  076%=      5-min Rain = 0
KBO1 180218Z 20008KT 03/M01 A3013 RMK A01 T00261012  RH  076%=      5-min Rain = 0
KBO1 180219Z 20008KT 03/M01 A3013 RMK A01 T00261012  RH  076%=      5-min Rain = 0
KBO1 180220Z 20008KT 03/M01 A3013 RMK A01 T00261012  RH  076%=      5-min Rain = 0
KBO1 180221Z 20008KT 03/M01 A3013 RMK A01 T00271012  RH  076%=      5-min Rain = 0
KBO1 180222Z 20008KT 03/M01 A3013 RMK A01 T00271011  RH  076%=      5-min Rain = 0
KBO1 180223Z 20008KT 03/M01 A3013 RMK A01 T00281011  RH  076%=      5-min Rain = 0
KBO1 180224Z 20008KT 03/M01 A3013 RMK A01 T00281010  RH  076%=      5-min Rain = 0
KBO1 180225Z 20009KT 03/M01 A3013 RMK A01 T00291009  RH  076%=      5-min Rain = 0
KBO1 180226Z 20009KT 03/M01 A3013 RMK A01 T00311007  RH  076%=      5-min Rain = 0
KBO1 180227Z 20009KT 03/M01 A3013 RMK A01 T00321007  RH  076%=      5-min Rain = 0
KBO1 180228Z 20009KT 03/M01 A3013 RMK A01 T00341006  RH  075%=      5-min Rain = 0
KBO1 180229Z 20009KT 04/M01 A3013 RMK A01 T00351006  RH  074%=      5-min Rain = 0
KBO1 180230Z 20009KT 04/M01 A3013 RMK A01 T00371006  RH  074%=      5-min Rain = 0
KBO1 180231Z 20010KT 04/M01 A3013 RMK A01 T00371006  RH  074%=      5-min Rain = 0
KBO1 180232Z 20009KT 04/M01 A3013 RMK A01 T00371006  RH  073%=      5-min Rain = 0
KBO1 180233Z 20009KT 04/M01 A3013 RMK A01 T00371006  RH  073%=      5-min Rain = 0
KBO1 180234Z 20009KT 04/M01 A3013 RMK A01 T00371006  RH  073%=      5-min Rain = 0
KBO1 180235Z 20009KT 04/M01 A3013 RMK A01 T00371006  RH  073%=      5-min Rain = 0
KBO1 180236Z 20009KT 04/M01 A3013 RMK A01 T00371006  RH  073%=      5-min Rain = 0
KBO1 180237Z 20009KT 04/M01 A3013 RMK A01 T00371006  RH  073%=      5-min Rain = 0
KBO1 180238Z 20008KT 04/M01 A3013 RMK A01 T00371006  RH  074%=      5-min Rain = 0
KBO1 180239Z 20008KT 04/M01 A3013 RMK A01 T00371006  RH  074%=      5-min Rain = 0
KBO1 180240Z 20008KT 04/M01 A3013 RMK A01 T00361007  RH  073%=      5-min Rain = 0
KBO1 180241Z 20008KT 04/M01 A3013 RMK A01 T00351008  RH  073%=      5-min Rain = 0
KBO1 180242Z 20008KT 03/M01 A3013 RMK A01 T00331009  RH  074%=      5-min Rain = 0
KBO1 180243Z 20009KT 03/M01 A3013 RMK A01 T00321009  RH  075%=      5-min Rain = 0
KBO1 180244Z 19009KT 03/M01 A3013 RMK A01 T00311009  RH  075%=      5-min Rain = 0
KBO1 180245Z 20009KT 03/M01 A3013 RMK A01 T00301010  RH  075%=      5-min Rain = 0
KBO1 180246Z 20009KT 03/M01 A3013 RMK A01 T00301009  RH  076%=      5-min Rain = 0
KBO1 180247Z 20009KT 03/M01 A3013 RMK A01 T00301009  RH  076%=      5-min Rain = 0
KBO1 180248Z 20009KT 03/M01 A3013 RMK A01 T00291009  RH  076%=      5-min Rain = 0
KBO1 180249Z 20009KT 03/M01 A3013 RMK A01 T00291009  RH  076%=      5-min Rain = 0
KBO1 180250Z 20009KT 03/M01 A3013 RMK A01 T00291008  RH  077%=      5-min Rain = 0
KBO1 180251Z 20009KT 03/M01 A3013 RMK A01 T00291008  RH  077%=      5-min Rain = 0
KBO1 180252Z 20009KT 03/M01 A3013 RMK A01 T00291008  RH  077%=      5-min Rain = 0
KBO1 180253Z 20009KT 03/M01 A3013 RMK A01 T00291008  RH  077%=      5-min Rain = 0
KBO1 180254Z 20008KT 03/M01 A3013 RMK A01 T00291008  RH  076%=      5-min Rain = 0
KBO1 180255Z 20008KT 03/M01 A3013 RMK A01 T00291009  RH  076%=      5-min Rain = 0
KBO1 180256Z 20008KT 03/M01 A3013 RMK A01 T00281009  RH  076%=      5-min Rain = 0
KBO1 180257Z 20008KT 03/M01 A3013 RMK A01 T00281009  RH  077%=      5-min Rain = 0
KBO1 180258Z 20008KT 03/M01 A3013 RMK A01 T00291009  RH  076%=      5-min Rain = 0
KBO1 180259Z 21008KT 03/M01 A3013 RMK A01 T00291009  RH  076%=      5-min Rain = 0
KBO1 180300Z 21008KT 03/M01 A3013 RMK A01 T00291009  RH  076%=      5-min Rain = 0
KBO1 180301Z 21009KT 03/M01 A3013 RMK A01 T00281010  RH  076%=      5-min Rain = 0
KBO1 180302Z 21009KT 03/M01 A3013 RMK A01 T00281010  RH  076%=      5-min Rain = 0
KBO1 180303Z 21009KT 03/M01 A3013 RMK A01 T00281010  RH  076%=      5-min Rain = 0
KBO1 180304Z 21009KT 03/M01 A3014 RMK A01 T00291009  RH  076%=      5-min Rain = 0
KBO1 180305Z 21010KT 03/M01 A3014 RMK A01 T00281009  RH  076%=      5-min Rain = 0
KBO1 180306Z 21010KT 03/M01 A3014 RMK A01 T00291008  RH  076%=      5-min Rain = 0
KBO1 180307Z 21010KT 03/M01 A3014 RMK A01 T00301007  RH  076%=      5-min Rain = 0
KBO1 180308Z 21010KT 03/M01 A3014 RMK A01 T00311007  RH  076%=      5-min Rain = 0
KBO1 180309Z 20010KT 03/M01 A3013 RMK A01 T00321006  RH  076%=      5-min Rain = 0
KBO1 180310Z 20011KT 03/M01 A3014 RMK A01 T00331006  RH  076%=      5-min Rain = 0
KBO1 180311Z 20010KT 03/M01 A3014 RMK A01 T00341006  RH  075%=      5-min Rain = 0
KBO1 180312Z 20010KT 03/M01 A3014 RMK A01 T00331006  RH  075%=      5-min Rain = 0
KBO1 180313Z 20010KT 03/M01 A3014 RMK A01 T00331006  RH  075%=      5-min Rain = 0
KBO1 180314Z 20010KT 03/M01 A3014 RMK A01 T00331006  RH  075%=      5-min Rain = 0
KBO1 180315Z 20010KT 03/M01 A3014 RMK A01 T00321007  RH  075%=      5-min Rain = 0
KBO1 180316Z 20010KT 03/M01 A3014 RMK A01 T00311008  RH  076%=      5-min Rain = 0
KBO1 180317Z 20009KT 03/M01 A3014 RMK A01 T00311007  RH  076%=      5-min Rain = 0
KBO1 180318Z 20009KT 03/M01 A3014 RMK A01 T00311007  RH  076%=      5-min Rain = 0
KBO1 180319Z 20009KT 03/M01 A3014 RMK A01 T00311007  RH  076%=      5-min Rain = 0
KBO1 180320Z 21009KT 03/M01 A3014 RMK A01 T00311006  RH  077%=      5-min Rain = 0
KBO1 180321Z 21009KT 03/M01 A3014 RMK A01 T00311007  RH  077%=      5-min Rain = 0
KBO1 180322Z 21010KT 03/M01 A3014 RMK A01 T00311006  RH  077%=      5-min Rain = 0
KBO1 180323Z 21009KT 03/M01 A3014 RMK A01 T00311006  RH  077%=      5-min Rain = 0
KBO1 180324Z 21009KT 03/M01 A3014 RMK A01 T00321006  RH  077%=      5-min Rain = 0
KBO1 180325Z 21009KT 03/M01 A3014 RMK A01 T00321006  RH  076%=      5-min Rain = 0
KBO1 180326Z 20009KT 03/M01 A3014 RMK A01 T00321006  RH  076%=      5-min Rain = 0
KBO1 180327Z 20009KT 03/M01 A3014 RMK A01 T00321005  RH  077%=      5-min Rain = 0
KBO1 180328Z 20010KT 03/M00 A3014 RMK A01 T00321004  RH  077%=      5-min Rain = 0
KBO1 180329Z 20010KT 03/M00 A3014 RMK A01 T00341003  RH  077%=      5-min Rain = 0
KBO1 180330Z 20010KT 04/M00 A3014 RMK A01 T00371002  RH  076%=      5-min Rain = 0
KBO1 180331Z 20010KT 04/M00 A3014 RMK A01 T00381002  RH  075%=      5-min Rain = 0
KBO1 180332Z 20010KT 04/M00 A3014 RMK A01 T00391002  RH  074%=      5-min Rain = 0
KBO1 180333Z 20010KT 04/M00 A3014 RMK A01 T00391003  RH  074%=      5-min Rain = 0
KBO1 180334Z 20010KT 04/M00 A3014 RMK A01 T00391003  RH  074%=      5-min Rain = 0
KBO1 180335Z 20010KT 04/M00 A3014 RMK A01 T00391003  RH  074%=      5-min Rain = 0
KBO1 180336Z 20010KT 04/M00 A3014 RMK A01 T00401003  RH  074%=      5-min Rain = 0
KBO1 180337Z 20010KT 04/M00 A3014 RMK A01 T00401003  RH  074%=      5-min Rain = 0
KBO1 180338Z 20010KT 04/M00 A3014 RMK A01 T00411003  RH  073%=      5-min Rain = 0
KBO1 180339Z 20010KT 04/M00 A3014 RMK A01 T00411003  RH  073%=      5-min Rain = 0
KBO1 180340Z 20010KT 04/M00 A3014 RMK A01 T00421002  RH  073%=      5-min Rain = 0
KBO1 180341Z 20010KT 04/M00 A3014 RMK A01 T00421003  RH  073%=      5-min Rain = 0
KBO1 180342Z 20010KT 04/M00 A3013 RMK A01 T00411003  RH  073%=      5-min Rain = 0
KBO1 180343Z 20010KT 04/M00 A3013 RMK A01 T00411003  RH  073%=      5-min Rain = 0
KBO1 180344Z 20010KT 04/M00 A3013 RMK A01 T00411003  RH  073%=      5-min Rain = 0
KBO1 180345Z 20009KT 04/M00 A3013 RMK A01 T00411003  RH  073%=      5-min Rain = 0
KBO1 180346Z 21009KT 04/M00 A3013 RMK A01 T00401004  RH  073%=      5-min Rain = 0
KBO1 180347Z 21009KT 04/M00 A3013 RMK A01 T00391004  RH  073%=      5-min Rain = 0
KBO1 180348Z 20009KT 04/M00 A3013 RMK A01 T00381004  RH  074%=      5-min Rain = 0
KBO1 180349Z 21009KT 04/M01 A3013 RMK A01 T00361005  RH  074%=      5-min Rain = 0
KBO1 180350Z 21009KT 04/M01 A3013 RMK A01 T00361005  RH  075%=      5-min Rain = 0
KBO1 180351Z 21009KT 04/M00 A3013 RMK A01 T00361004  RH  075%=      5-min Rain = 0
KBO1 180352Z 21009KT 04/M00 A3013 RMK A01 T00361004  RH  075%=      5-min Rain = 0
KBO1 180353Z 21010KT 04/M00 A3013 RMK A01 T00361004  RH  075%=      5-min Rain = 0
KBO1 180354Z 21010KT 04/M00 A3013 RMK A01 T00361004  RH  075%=      5-min Rain = 0
KBO1 180355Z 21010KT 04/M00 A3013 RMK A01 T00371004  RH  075%=      5-min Rain = 0
KBO1 180356Z 21010KT 04/M00 A3013 RMK A01 T00371003  RH  075%=      5-min Rain = 0
KBO1 180357Z 21010KT 04/M00 A3013 RMK A01 T00381003  RH  074%=      5-min Rain = 0
KBO1 180358Z 21010KT 04/M00 A3013 RMK A01 T00391003  RH  074%=      5-min Rain = 0
KBO1 180359Z 21010KT 04/M00 A3013 RMK A01 T00401003  RH  074%=      5-min Rain = 0
KBO1 180400Z 21010KT 04/M00 A3012 RMK A01 T00411003  RH  073%=      5-min Rain = 0
KBO1 180401Z 21010KT 04/M00 A3012 RMK A01 T00411003  RH  073%=      5-min Rain = 0
KBO1 180402Z 21010KT 04/M00 A3012 RMK A01 T00411003  RH  073%=      5-min Rain = 0
KBO1 180403Z 21010KT 04/M00 A3012 RMK A01 T00411003  RH  073%=      5-min Rain = 0
KBO1 180404Z 21009KT 04/M00 A3012 RMK A01 T00411003  RH  073%=      5-min Rain = 0
KBO1 180405Z 20010KT 04/M00 A3012 RMK A01 T00421002  RH  073%=      5-min Rain = 0
KBO1 180406Z 21010KT 04/M00 A3012 RMK A01 T00431002  RH  073%=      5-min Rain = 0
KBO1 180407Z 20011KT 04/M00 A3012 RMK A01 T00431002  RH  073%=      5-min Rain = 0
KBO1 180408Z 20011KT 04/M00 A3012 RMK A01 T00441002  RH  072%=      5-min Rain = 0
KBO1 180409Z 20011KT 04/M00 A3012 RMK A01 T00441001  RH  072%=      5-min Rain = 0
KBO1 180410Z 21010KT 05/M00 A3012 RMK A01 T00451001  RH  072%=      5-min Rain = 0
KBO1 180411Z 21010KT 05/M00 A3012 RMK A01 T00451001  RH  072%=      5-min Rain = 0
KBO1 180412Z 21010KT 05/M00 A3012 RMK A01 T00451002  RH  072%=      5-min Rain = 0
KBO1 180413Z 21010KT 05/M00 A3012 RMK A01 T00451002  RH  072%=      5-min Rain = 0
KBO1 180414Z 21010KT 04/M00 A3012 RMK A01 T00441002  RH  072%=      5-min Rain = 0
KBO1 180415Z 21010KT 04/M00 A3012 RMK A01 T00431003  RH  072%=      5-min Rain = 0
KBO1 180416Z 21009KT 04/M00 A3012 RMK A01 T00431003  RH  072%=      5-min Rain = 0
KBO1 180417Z 21009KT 04/M00 A3012 RMK A01 T00411004  RH  072%=      5-min Rain = 0
KBO1 180418Z 21010KT 04/M00 A3012 RMK A01 T00411004  RH  073%=      5-min Rain = 0
KBO1 180419Z 21009KT 04/M00 A3012 RMK A01 T00401004  RH  073%=      5-min Rain = 0
KBO1 180420Z 21010KT 04/M00 A3012 RMK A01 T00391004  RH  074%=      5-min Rain = 0
KBO1 180421Z 21010KT 04/M00 A3012 RMK A01 T00401003  RH  074%=      5-min Rain = 0
KBO1 180422Z 21009KT 04/M00 A3012 RMK A01 T00391004  RH  074%=      5-min Rain = 0
KBO1 180423Z 21009KT 04/M00 A3012 RMK A01 T00381004  RH  074%=      5-min Rain = 0
KBO1 180424Z 20009KT 04/M00 A3012 RMK A01 T00381004  RH  074%=      5-min Rain = 0
KBO1 180425Z 20009KT 04/M00 A3012 RMK A01 T00391003  RH  074%=      5-min Rain = 0
KBO1 180426Z 21009KT 04/M00 A3012 RMK A01 T00381004  RH  074%=      5-min Rain = 0
KBO1 180427Z 20009KT 04/M00 A3012 RMK A01 T00381004  RH  074%=      5-min Rain = 0
KBO1 180428Z 21009KT 04/M00 A3012 RMK A01 T00381004  RH  074%=      5-min Rain = 0
KBO1 180429Z 21008KT 04/M00 A3012 RMK A01 T00371004  RH  074%=      5-min Rain = 0
KBO1 180430Z 21008KT 04/M00 A3012 RMK A01 T00371004  RH  075%=      5-min Rain = 0
KBO1 180431Z 21008KT 04/M00 A3012 RMK A01 T00361004  RH  075%=      5-min Rain = 0
KBO1 180432Z 21008KT 04/M01 A3012 RMK A01 T00351005  RH  075%=      5-min Rain = 0
KBO1 180433Z 21009KT 04/M01 A3012 RMK A01 T00351005  RH  075%=      5-min Rain = 0
KBO1 180434Z 20009KT 04/M01 A3012 RMK A01 T00351005  RH  076%=      5-min Rain = 0
KBO1 180435Z 20008KT 04/M00 A3012 RMK A01 T00351004  RH  076%=      5-min Rain = 0
KBO1 180436Z 20008KT 03/M01 A3012 RMK A01 T00341005  RH  076%=      5-min Rain = 0
KBO1 180437Z 20009KT 03/M00 A3012 RMK A01 T00341004  RH  076%=      5-min Rain = 0
KBO1 180438Z 21008KT 03/M01 A3012 RMK A01 T00341005  RH  076%=      5-min Rain = 0
KBO1 180439Z 21008KT 03/M01 A3012 RMK A01 T00331005  RH  076%=      5-min Rain = 0
KBO1 180440Z 21009KT 03/M01 A3012 RMK A01 T00331005  RH  076%=      5-min Rain = 0
KBO1 180441Z 21009KT 03/M01 A3012 RMK A01 T00321006  RH  076%=      5-min Rain = 0
KBO1 180442Z 21009KT 03/M01 A3012 RMK A01 T00321006  RH  076%=      5-min Rain = 0
KBO1 180443Z 21009KT 03/M01 A3012 RMK A01 T00311007  RH  076%=      5-min Rain = 0
KBO1 180444Z 21009KT 03/M01 A3012 RMK A01 T00301007  RH  077%=      5-min Rain = 0
KBO1 180445Z 21009KT 03/M01 A3012 RMK A01 T00291008  RH  077%=      5-min Rain = 0
KBO1 180446Z 21009KT 03/M01 A3012 RMK A01 T00271009  RH  077%=      5-min Rain = 0
KBO1 180447Z 21009KT 03/M01 A3012 RMK A01 T00271009  RH  077%=      5-min Rain = 0
KBO1 180448Z 21009KT 03/M01 A3012 RMK A01 T00261009  RH  078%=      5-min Rain = 0
KBO1 180449Z 21009KT 03/M01 A3012 RMK A01 T00261008  RH  078%=      5-min Rain = 0
KBO1 180450Z 20009KT 03/M01 A3012 RMK A01 T00271007  RH  079%=      5-min Rain = 0
KBO1 180451Z 20009KT 03/M01 A3011 RMK A01 T00291005  RH  079%=      5-min Rain = 0
KBO1 180452Z 20010KT 03/M00 A3011 RMK A01 T00311003  RH  079%=      5-min Rain = 0
KBO1 180453Z 20010KT 03/M00 A3011 RMK A01 T00341001  RH  078%=      5-min Rain = 0
KBO1 180454Z 20010KT 04/M00 A3011 RMK A01 T00361001  RH  077%=      5-min Rain = 0
KBO1 180455Z 20011KT 04/M00 A3011 RMK A01 T00371001  RH  076%=      5-min Rain = 0
KBO1 180456Z 20011KT 04/M00 A3011 RMK A01 T00381002  RH  075%=      5-min Rain = 0
KBO1 180457Z 20011KT 04/M00 A3011 RMK A01 T00381003  RH  075%=      5-min Rain = 0
KBO1 180458Z 20011KT 04/M00 A3011 RMK A01 T00381003  RH  074%=      5-min Rain = 0
KBO1 180459Z 19011KT 04/M00 A3011 RMK A01 T00381003  RH  074%=      5-min Rain = 0
KBO1 180500Z 20011KT 04/M00 A3011 RMK A01 T00381004  RH  074%=      5-min Rain = 0
KBO1 180501Z 20011KT 04/M00 A3011 RMK A01 T00371004  RH  075%=      5-min Rain = 0
KBO1 180502Z 19011KT 04/M00 A3011 RMK A01 T00371004  RH  075%=      5-min Rain = 0
KBO1 180503Z 19011KT 04/M00 A3011 RMK A01 T00371004  RH  075%=      5-min Rain = 0
KBO1 180504Z 20011KT 04/M00 A3011 RMK A01 T00371003  RH  075%=      5-min Rain = 0
KBO1 180505Z 19011KT 04/M00 A3011 RMK A01 T00371003  RH  075%=      5-min Rain = 0
KBO1 180506Z 19010KT 04/M00 A3011 RMK A01 T00381003  RH  075%=      5-min Rain = 0
KBO1 180507Z 19010KT 04/M00 A3011 RMK A01 T00381003  RH  075%=      5-min Rain = 0
KBO1 180508Z 19009KT 04/M00 A3011 RMK A01 T00381002  RH  075%=      5-min Rain = 0
KBO1 180509Z 20009KT 04/M00 A3011 RMK A01 T00391002  RH  075%=      5-min Rain = 0
KBO1 180510Z 20010KT 04/M00 A3011 RMK A01 T00391002  RH  075%=      5-min Rain = 0
KBO1 180511Z 20010KT 04/M00 A3011 RMK A01 T00401001  RH  074%=      5-min Rain = 0
KBO1 180512Z 20010KT 04/M00 A3011 RMK A01 T00401001  RH  074%=      5-min Rain = 0
KBO1 180513Z 20010KT 04/M00 A3011 RMK A01 T00411001  RH  074%=      5-min Rain = 0
KBO1 180514Z 20010KT 04/00 A3011 RMK A01 T004200-0  RH  074%=      5-min Rain = 0
KBO1 180515Z 20010KT 04/M00 A301 RMK A01 T00431001  RH  073%=      5-min Rain = 0
KBO1 180516Z 20009KT 04/M00 A301 RMK A01 T00431001  RH  073%=      5-min Rain = 0
KBO1 180517Z 20009KT 04/M00 A301 RMK A01 T00431001  RH  073%=      5-min Rain = 0
KBO1 180518Z 20010KT 04/M00 A301 RMK A01 T00421001  RH  073%=      5-min Rain = 0
KBO1 180519Z 20010KT 04/M00 A301 RMK A01 T00421001  RH  073%=      5-min Rain = 0
KBO1 180520Z 20010KT 04/M00 A301 RMK A01 T00421001  RH  073%=      5-min Rain = 0
KBO1 180521Z 20011KT 04/M00 A301 RMK A01 T00421001  RH  073%=      5-min Rain = 0
KBO1 180522Z 20011KT 04/M00 A301 RMK A01 T00421001  RH  074%=      5-min Rain = 0
KBO1 180523Z 20011KT 04/M00 A301 RMK A01 T00421001  RH  073%=      5-min Rain = 0
KBO1 180524Z 20010KT 04/M00 A301 RMK A01 T00421001  RH  073%=      5-min Rain = 0
KBO1 180525Z 20010KT 04/M00 A301 RMK A01 T00421002  RH  073%=      5-min Rain = 0
KBO1 180526Z 19010KT 04/M00 A301 RMK A01 T00421002  RH  073%=      5-min Rain = 0
KBO1 180527Z 19009KT 04/M00 A301 RMK A01 T00411002  RH  073%=      5-min Rain = 0
KBO1 180528Z 19009KT 04/M00 A301 RMK A01 T00401002  RH  074%=      5-min Rain = 0
KBO1 180529Z 19010KT 04/M00 A301 RMK A01 T00401002  RH  074%=      5-min Rain = 0
KBO1 180530Z 19010KT 04/M00 A301 RMK A01 T00411002  RH  074%=      5-min Rain = 0
KBO1 180531Z 19009KT 04/M00 A301 RMK A01 T00421001  RH  074%=      5-min Rain = 0
KBO1 180532Z 19010KT 04/M00 A301 RMK A01 T00421001  RH  074%=      5-min Rain = 0
KBO1 180533Z 19009KT 04/M00 A301 RMK A01 T00411002  RH  074%=      5-min Rain = 0
KBO1 180534Z 19009KT 04/M00 A301 RMK A01 T00401002  RH  074%=      5-min Rain = 0
KBO1 180535Z 19009KT 04/M00 A301 RMK A01 T00391003  RH  074%=      5-min Rain = 0
KBO1 180536Z 19009KT 04/M00 A301 RMK A01 T00381003  RH  074%=      5-min Rain = 0
KBO1 180537Z 20008KT 04/M00 A3009 RMK A01 T00381003  RH  075%=      5-min Rain = 0
KBO1 180538Z 20007KT 04/M00 A3009 RMK A01 T00371004  RH  075%=      5-min Rain = 0
KBO1 180539Z 20007KT 04/M01 A3009 RMK A01 T00351005  RH  075%=      5-min Rain = 0
KBO1 180540Z 20007KT 03/M01 A3009 RMK A01 T00341005  RH  075%=      5-min Rain = 0
KBO1 180541Z 20007KT 03/M01 A3009 RMK A01 T00331005  RH  076%=      5-min Rain = 0
KBO1 180542Z 20007KT 03/M01 A3009 RMK A01 T00331005  RH  076%=      5-min Rain = 0
KBO1 180543Z 20007KT 03/M01 A3009 RMK A01 T00321006  RH  076%=      5-min Rain = 0
KBO1 180544Z 20007KT 03/M01 A3009 RMK A01 T00301006  RH  077%=      5-min Rain = 0
KBO1 180545Z 20007KT 03/M01 A3009 RMK A01 T00291007  RH  077%=      5-min Rain = 0
KBO1 180546Z 20007KT 03/M01 A3009 RMK A01 T00281007  RH  078%=      5-min Rain = 0
KBO1 180547Z 20007KT 03/M01 A3009 RMK A01 T00271007  RH  078%=      5-min Rain = 0
KBO1 180548Z 20007KT 03/M01 A3009 RMK A01 T00261008  RH  079%=      5-min Rain = 0
KBO1 180549Z 20008KT 03/M01 A3009 RMK A01 T00251008  RH  079%=      5-min Rain = 0
KBO1 180550Z 21008KT 02/M01 A3009 RMK A01 T00241008  RH  079%=      5-min Rain = 0
KBO1 180551Z 20008KT 02/M01 A3009 RMK A01 T00231009  RH  079%=      5-min Rain = 0
KBO1 180552Z 20008KT 02/M01 A3009 RMK A01 T00221010  RH  079%=      5-min Rain = 0
KBO1 180553Z 20009KT 02/M01 A3008 RMK A01 T00221010  RH  080%=      5-min Rain = 0
KBO1 180554Z 21009KT 02/M01 A3008 RMK A01 T00211011  RH  080%=      5-min Rain = 0
KBO1 180555Z 21009KT 02/M01 A3008 RMK A01 T00201011  RH  080%=      5-min Rain = 0
KBO1 180556Z 21009KT 02/M01 A3008 RMK A01 T00191011  RH  081%=      5-min Rain = 0
KBO1 180557Z 21009KT 02/M01 A3008 RMK A01 T00181011  RH  081%=      5-min Rain = 0
KBO1 180558Z 21010KT 02/M01 A3008 RMK A01 T00181010  RH  081%=      5-min Rain = 0
KBO1 180559Z 21010KT 02/M01 A3008 RMK A01 T00181010  RH  082%=      5-min Rain = 0

Page generated in 0.1193 seconds.